<?xml version="1.0" encoding="UTF-8" standalone="no" ?>
<gpx xmlns="http://www.topografix.com/GPX/1/1" xmlns:xsi="http://www.w3.org/2001/XMLSchema-instance" xsi:schemaLocation="http://www.topografix.com/GPX/1/1 http://www.topografix.com/GPX/1/1/gpx.xsd" version="1.1" creator="VisuGPX - https://www.visugpx.com">
  <metadata>
    <name>Le fort Belin à Salins les bains</name>
    <desc><![CDATA[Agréable randonnée pédestre pour accéder au fort Belin qui surplombe la ville de Salins les bains]]></desc>
  </metadata>
  <trk>
    <name><![CDATA[salins ap midi]]></name>
    <trkseg>
      <trkpt lat="46.93763" lon="5.87615">
        <ele>334</ele>
        <time>2009-04-19T11:51:59Z</time>
      </trkpt>
      <trkpt lat="46.93722" lon="5.87649">
        <ele>335</ele>
        <time>2009-04-19T11:52:23Z</time>
      </trkpt>
      <trkpt lat="46.93716" lon="5.87642">
        <ele>334</ele>
        <time>2009-04-19T11:52:51Z</time>
      </trkpt>
      <trkpt lat="46.93718" lon="5.8765">
        <ele>335</ele>
        <time>2009-04-19T11:53:35Z</time>
      </trkpt>
      <trkpt lat="46.93723" lon="5.87667">
        <ele>335</ele>
        <time>2009-04-19T11:53:50Z</time>
      </trkpt>
      <trkpt lat="46.93717" lon="5.87702">
        <ele>335</ele>
        <time>2009-04-19T11:54:10Z</time>
      </trkpt>
      <trkpt lat="46.93712" lon="5.87718">
        <ele>336</ele>
        <time>2009-04-19T11:54:27Z</time>
      </trkpt>
      <trkpt lat="46.93717" lon="5.87731">
        <ele>336</ele>
        <time>2009-04-19T11:55:01Z</time>
      </trkpt>
      <trkpt lat="46.93724" lon="5.87754">
        <ele>337</ele>
        <time>2009-04-19T11:55:23Z</time>
      </trkpt>
      <trkpt lat="46.93718" lon="5.87763">
        <ele>339</ele>
        <time>2009-04-19T11:55:31Z</time>
      </trkpt>
      <trkpt lat="46.937" lon="5.8777">
        <ele>341</ele>
        <time>2009-04-19T11:55:56Z</time>
      </trkpt>
      <trkpt lat="46.93709" lon="5.87776">
        <ele>340</ele>
        <time>2009-04-19T11:56:11Z</time>
      </trkpt>
      <trkpt lat="46.93725" lon="5.87784">
        <ele>342</ele>
        <time>2009-04-19T11:56:21Z</time>
      </trkpt>
      <trkpt lat="46.93726" lon="5.87793">
        <ele>342</ele>
        <time>2009-04-19T11:56:32Z</time>
      </trkpt>
      <trkpt lat="46.93721" lon="5.87797">
        <ele>345</ele>
        <time>2009-04-19T11:56:55Z</time>
      </trkpt>
      <trkpt lat="46.93718" lon="5.87797">
        <ele>347</ele>
        <time>2009-04-19T11:56:58Z</time>
      </trkpt>
      <trkpt lat="46.93711" lon="5.87804">
        <ele>347</ele>
        <time>2009-04-19T11:57:06Z</time>
      </trkpt>
      <trkpt lat="46.93705" lon="5.87815">
        <ele>351</ele>
        <time>2009-04-19T11:57:20Z</time>
      </trkpt>
      <trkpt lat="46.93695" lon="5.87827">
        <ele>353</ele>
        <time>2009-04-19T11:57:36Z</time>
      </trkpt>
      <trkpt lat="46.93688" lon="5.87835">
        <ele>357</ele>
        <time>2009-04-19T11:57:50Z</time>
      </trkpt>
      <trkpt lat="46.93685" lon="5.87838">
        <ele>357</ele>
        <time>2009-04-19T11:57:54Z</time>
      </trkpt>
      <trkpt lat="46.93676" lon="5.87839">
        <ele>360</ele>
        <time>2009-04-19T11:58:05Z</time>
      </trkpt>
      <trkpt lat="46.93672" lon="5.87841">
        <ele>360</ele>
        <time>2009-04-19T11:58:09Z</time>
      </trkpt>
      <trkpt lat="46.93661" lon="5.87846">
        <ele>362</ele>
        <time>2009-04-19T11:58:18Z</time>
      </trkpt>
      <trkpt lat="46.93655" lon="5.87847">
        <ele>363</ele>
        <time>2009-04-19T11:58:24Z</time>
      </trkpt>
      <trkpt lat="46.93646" lon="5.87852">
        <ele>364</ele>
        <time>2009-04-19T11:58:31Z</time>
      </trkpt>
      <trkpt lat="46.93638" lon="5.87864">
        <ele>367</ele>
        <time>2009-04-19T11:58:44Z</time>
      </trkpt>
      <trkpt lat="46.93633" lon="5.87871">
        <ele>368</ele>
        <time>2009-04-19T11:58:51Z</time>
      </trkpt>
      <trkpt lat="46.93628" lon="5.87877">
        <ele>369</ele>
        <time>2009-04-19T11:58:56Z</time>
      </trkpt>
      <trkpt lat="46.93608" lon="5.87883">
        <ele>373</ele>
        <time>2009-04-19T11:59:14Z</time>
      </trkpt>
      <trkpt lat="46.93622" lon="5.87881">
        <ele>373</ele>
        <time>2009-04-19T11:59:31Z</time>
      </trkpt>
      <trkpt lat="46.9362" lon="5.87888">
        <ele>374</ele>
        <time>2009-04-19T11:59:46Z</time>
      </trkpt>
      <trkpt lat="46.93608" lon="5.87898">
        <ele>377</ele>
        <time>2009-04-19T12:00:00Z</time>
      </trkpt>
      <trkpt lat="46.93608" lon="5.87899">
        <ele>376</ele>
        <time>2009-04-19T12:00:01Z</time>
      </trkpt>
      <trkpt lat="46.93604" lon="5.87913">
        <ele>379</ele>
        <time>2009-04-19T12:00:15Z</time>
      </trkpt>
      <trkpt lat="46.93602" lon="5.87918">
        <ele>379</ele>
        <time>2009-04-19T12:00:19Z</time>
      </trkpt>
      <trkpt lat="46.93607" lon="5.87933">
        <ele>383</ele>
        <time>2009-04-19T12:00:31Z</time>
      </trkpt>
      <trkpt lat="46.93611" lon="5.8794">
        <ele>382</ele>
        <time>2009-04-19T12:00:37Z</time>
      </trkpt>
      <trkpt lat="46.93616" lon="5.87943">
        <ele>384</ele>
        <time>2009-04-19T12:00:42Z</time>
      </trkpt>
      <trkpt lat="46.93625" lon="5.87951">
        <ele>385</ele>
        <time>2009-04-19T12:01:07Z</time>
      </trkpt>
      <trkpt lat="46.93631" lon="5.8795">
        <ele>385</ele>
        <time>2009-04-19T12:01:41Z</time>
      </trkpt>
      <trkpt lat="46.93637" lon="5.87951">
        <ele>386</ele>
        <time>2009-04-19T12:02:13Z</time>
      </trkpt>
      <trkpt lat="46.93643" lon="5.8796">
        <ele>388</ele>
        <time>2009-04-19T12:03:32Z</time>
      </trkpt>
      <trkpt lat="46.9364" lon="5.8796">
        <ele>390</ele>
        <time>2009-04-19T12:03:46Z</time>
      </trkpt>
      <trkpt lat="46.93629" lon="5.87965">
        <ele>391</ele>
        <time>2009-04-19T12:04:00Z</time>
      </trkpt>
      <trkpt lat="46.93618" lon="5.87983">
        <ele>394</ele>
        <time>2009-04-19T12:04:18Z</time>
      </trkpt>
      <trkpt lat="46.93629" lon="5.87987">
        <ele>397</ele>
        <time>2009-04-19T12:04:33Z</time>
      </trkpt>
      <trkpt lat="46.93631" lon="5.87986">
        <ele>397</ele>
        <time>2009-04-19T12:04:34Z</time>
      </trkpt>
      <trkpt lat="46.93635" lon="5.87985">
        <ele>400</ele>
        <time>2009-04-19T12:04:45Z</time>
      </trkpt>
      <trkpt lat="46.93634" lon="5.87993">
        <ele>401</ele>
        <time>2009-04-19T12:04:56Z</time>
      </trkpt>
      <trkpt lat="46.93644" lon="5.87996">
        <ele>404</ele>
        <time>2009-04-19T12:05:10Z</time>
      </trkpt>
      <trkpt lat="46.93655" lon="5.88009">
        <ele>406</ele>
        <time>2009-04-19T12:05:33Z</time>
      </trkpt>
      <trkpt lat="46.93659" lon="5.88014">
        <ele>409</ele>
        <time>2009-04-19T12:05:43Z</time>
      </trkpt>
      <trkpt lat="46.93678" lon="5.88031">
        <ele>410</ele>
        <time>2009-04-19T12:06:00Z</time>
      </trkpt>
      <trkpt lat="46.93683" lon="5.88031">
        <ele>410</ele>
        <time>2009-04-19T12:06:04Z</time>
      </trkpt>
      <trkpt lat="46.93698" lon="5.8804">
        <ele>411</ele>
        <time>2009-04-19T12:06:20Z</time>
      </trkpt>
      <trkpt lat="46.93716" lon="5.88044">
        <ele>414</ele>
        <time>2009-04-19T12:06:38Z</time>
      </trkpt>
      <trkpt lat="46.93733" lon="5.88044">
        <ele>414</ele>
        <time>2009-04-19T12:06:52Z</time>
      </trkpt>
      <trkpt lat="46.93738" lon="5.88049">
        <ele>414</ele>
        <time>2009-04-19T12:06:58Z</time>
      </trkpt>
      <trkpt lat="46.93743" lon="5.8807">
        <ele>416</ele>
        <time>2009-04-19T12:07:13Z</time>
      </trkpt>
      <trkpt lat="46.93747" lon="5.88089">
        <ele>418</ele>
        <time>2009-04-19T12:07:32Z</time>
      </trkpt>
      <trkpt lat="46.93747" lon="5.88117">
        <ele>421</ele>
        <time>2009-04-19T12:07:51Z</time>
      </trkpt>
      <trkpt lat="46.93747" lon="5.88129">
        <ele>423</ele>
        <time>2009-04-19T12:08:01Z</time>
      </trkpt>
      <trkpt lat="46.93747" lon="5.88141">
        <ele>426</ele>
        <time>2009-04-19T12:08:15Z</time>
      </trkpt>
      <trkpt lat="46.93741" lon="5.88137">
        <ele>429</ele>
        <time>2009-04-19T12:08:40Z</time>
      </trkpt>
      <trkpt lat="46.93737" lon="5.88142">
        <ele>433</ele>
        <time>2009-04-19T12:08:58Z</time>
      </trkpt>
      <trkpt lat="46.93743" lon="5.88169">
        <ele>436</ele>
        <time>2009-04-19T12:09:15Z</time>
      </trkpt>
      <trkpt lat="46.93745" lon="5.88179">
        <ele>437</ele>
        <time>2009-04-19T12:09:22Z</time>
      </trkpt>
      <trkpt lat="46.9376" lon="5.88195">
        <ele>441</ele>
        <time>2009-04-19T12:09:36Z</time>
      </trkpt>
      <trkpt lat="46.93773" lon="5.88216">
        <ele>444</ele>
        <time>2009-04-19T12:09:58Z</time>
      </trkpt>
      <trkpt lat="46.93788" lon="5.88239">
        <ele>446</ele>
        <time>2009-04-19T12:10:18Z</time>
      </trkpt>
      <trkpt lat="46.93795" lon="5.88258">
        <ele>450</ele>
        <time>2009-04-19T12:10:34Z</time>
      </trkpt>
      <trkpt lat="46.93799" lon="5.88265">
        <ele>452</ele>
        <time>2009-04-19T12:10:55Z</time>
      </trkpt>
      <trkpt lat="46.93787" lon="5.88261">
        <ele>453</ele>
        <time>2009-04-19T12:11:09Z</time>
      </trkpt>
      <trkpt lat="46.93769" lon="5.88255">
        <ele>457</ele>
        <time>2009-04-19T12:11:25Z</time>
      </trkpt>
      <trkpt lat="46.93768" lon="5.88254">
        <ele>456</ele>
        <time>2009-04-19T12:11:26Z</time>
      </trkpt>
      <trkpt lat="46.93758" lon="5.88249">
        <ele>458</ele>
        <time>2009-04-19T12:11:35Z</time>
      </trkpt>
      <trkpt lat="46.93752" lon="5.88245">
        <ele>459</ele>
        <time>2009-04-19T12:11:39Z</time>
      </trkpt>
      <trkpt lat="46.93739" lon="5.88248">
        <ele>462</ele>
        <time>2009-04-19T12:11:52Z</time>
      </trkpt>
      <trkpt lat="46.93722" lon="5.88239">
        <ele>465</ele>
        <time>2009-04-19T12:12:11Z</time>
      </trkpt>
      <trkpt lat="46.93717" lon="5.88235">
        <ele>465</ele>
        <time>2009-04-19T12:12:15Z</time>
      </trkpt>
      <trkpt lat="46.9371" lon="5.88227">
        <ele>469</ele>
        <time>2009-04-19T12:12:25Z</time>
      </trkpt>
      <trkpt lat="46.93701" lon="5.8822">
        <ele>470</ele>
        <time>2009-04-19T12:12:34Z</time>
      </trkpt>
      <trkpt lat="46.93685" lon="5.88217">
        <ele>473</ele>
        <time>2009-04-19T12:12:49Z</time>
      </trkpt>
      <trkpt lat="46.93667" lon="5.8821">
        <ele>476</ele>
        <time>2009-04-19T12:13:08Z</time>
      </trkpt>
      <trkpt lat="46.9365" lon="5.88205">
        <ele>480</ele>
        <time>2009-04-19T12:13:23Z</time>
      </trkpt>
      <trkpt lat="46.93645" lon="5.88202">
        <ele>480</ele>
        <time>2009-04-19T12:13:28Z</time>
      </trkpt>
      <trkpt lat="46.93637" lon="5.88198">
        <ele>482</ele>
        <time>2009-04-19T12:13:37Z</time>
      </trkpt>
      <trkpt lat="46.93619" lon="5.88195">
        <ele>485</ele>
        <time>2009-04-19T12:13:53Z</time>
      </trkpt>
      <trkpt lat="46.9361" lon="5.88196">
        <ele>487</ele>
        <time>2009-04-19T12:14:02Z</time>
      </trkpt>
      <trkpt lat="46.93606" lon="5.88196">
        <ele>488</ele>
        <time>2009-04-19T12:14:06Z</time>
      </trkpt>
      <trkpt lat="46.93606" lon="5.88203">
        <ele>491</ele>
        <time>2009-04-19T12:14:21Z</time>
      </trkpt>
      <trkpt lat="46.93615" lon="5.88225">
        <ele>495</ele>
        <time>2009-04-19T12:14:42Z</time>
      </trkpt>
      <trkpt lat="46.93614" lon="5.88227">
        <ele>497</ele>
        <time>2009-04-19T12:14:47Z</time>
      </trkpt>
      <trkpt lat="46.93615" lon="5.88237">
        <ele>498</ele>
        <time>2009-04-19T12:14:57Z</time>
      </trkpt>
      <trkpt lat="46.93616" lon="5.8824">
        <ele>501</ele>
        <time>2009-04-19T12:15:07Z</time>
      </trkpt>
      <trkpt lat="46.93619" lon="5.88244">
        <ele>502</ele>
        <time>2009-04-19T12:15:13Z</time>
      </trkpt>
      <trkpt lat="46.93624" lon="5.8825">
        <ele>505</ele>
        <time>2009-04-19T12:15:26Z</time>
      </trkpt>
      <trkpt lat="46.9363" lon="5.8826">
        <ele>508</ele>
        <time>2009-04-19T12:15:38Z</time>
      </trkpt>
      <trkpt lat="46.93633" lon="5.88264">
        <ele>512</ele>
        <time>2009-04-19T12:15:52Z</time>
      </trkpt>
      <trkpt lat="46.93627" lon="5.88254">
        <ele>514</ele>
        <time>2009-04-19T12:16:09Z</time>
      </trkpt>
      <trkpt lat="46.93622" lon="5.88262">
        <ele>518</ele>
        <time>2009-04-19T12:16:25Z</time>
      </trkpt>
      <trkpt lat="46.93622" lon="5.88276">
        <ele>520</ele>
        <time>2009-04-19T12:16:41Z</time>
      </trkpt>
      <trkpt lat="46.93627" lon="5.88283">
        <ele>523</ele>
        <time>2009-04-19T12:16:50Z</time>
      </trkpt>
      <trkpt lat="46.93626" lon="5.88303">
        <ele>526</ele>
        <time>2009-04-19T12:17:07Z</time>
      </trkpt>
      <trkpt lat="46.9363" lon="5.88316">
        <ele>529</ele>
        <time>2009-04-19T12:17:22Z</time>
      </trkpt>
      <trkpt lat="46.93636" lon="5.88331">
        <ele>533</ele>
        <time>2009-04-19T12:17:39Z</time>
      </trkpt>
      <trkpt lat="46.93644" lon="5.88341">
        <ele>534</ele>
        <time>2009-04-19T12:17:48Z</time>
      </trkpt>
      <trkpt lat="46.93661" lon="5.8836">
        <ele>537</ele>
        <time>2009-04-19T12:18:10Z</time>
      </trkpt>
      <trkpt lat="46.93672" lon="5.88375">
        <ele>537</ele>
        <time>2009-04-19T12:18:20Z</time>
      </trkpt>
      <trkpt lat="46.93685" lon="5.88398">
        <ele>541</ele>
        <time>2009-04-19T12:18:43Z</time>
      </trkpt>
      <trkpt lat="46.93688" lon="5.88407">
        <ele>544</ele>
        <time>2009-04-19T12:19:00Z</time>
      </trkpt>
      <trkpt lat="46.93682" lon="5.88396">
        <ele>548</ele>
        <time>2009-04-19T12:19:15Z</time>
      </trkpt>
      <trkpt lat="46.93676" lon="5.88393">
        <ele>551</ele>
        <time>2009-04-19T12:19:28Z</time>
      </trkpt>
      <trkpt lat="46.93668" lon="5.88388">
        <ele>554</ele>
        <time>2009-04-19T12:19:41Z</time>
      </trkpt>
      <trkpt lat="46.93657" lon="5.88386">
        <ele>557</ele>
        <time>2009-04-19T12:19:56Z</time>
      </trkpt>
      <trkpt lat="46.93651" lon="5.88381">
        <ele>561</ele>
        <time>2009-04-19T12:20:03Z</time>
      </trkpt>
      <trkpt lat="46.93644" lon="5.8838">
        <ele>561</ele>
        <time>2009-04-19T12:20:13Z</time>
      </trkpt>
      <trkpt lat="46.93643" lon="5.88382">
        <ele>565</ele>
        <time>2009-04-19T12:20:17Z</time>
      </trkpt>
      <trkpt lat="46.93642" lon="5.88382">
        <ele>563</ele>
        <time>2009-04-19T12:20:18Z</time>
      </trkpt>
      <trkpt lat="46.93632" lon="5.88372">
        <ele>567</ele>
        <time>2009-04-19T12:20:35Z</time>
      </trkpt>
      <trkpt lat="46.93625" lon="5.88371">
        <ele>570</ele>
        <time>2009-04-19T12:20:51Z</time>
      </trkpt>
      <trkpt lat="46.93618" lon="5.88373">
        <ele>574</ele>
        <time>2009-04-19T12:21:08Z</time>
      </trkpt>
      <trkpt lat="46.93617" lon="5.88374">
        <ele>575</ele>
        <time>2009-04-19T12:21:10Z</time>
      </trkpt>
      <trkpt lat="46.93616" lon="5.88373">
        <ele>575</ele>
        <time>2009-04-19T12:21:14Z</time>
      </trkpt>
      <trkpt lat="46.93602" lon="5.88374">
        <ele>576</ele>
        <time>2009-04-19T12:21:31Z</time>
      </trkpt>
      <trkpt lat="46.93591" lon="5.88372">
        <ele>576</ele>
        <time>2009-04-19T12:21:45Z</time>
      </trkpt>
      <trkpt lat="46.93593" lon="5.88382">
        <ele>575</ele>
        <time>2009-04-19T12:22:02Z</time>
      </trkpt>
      <trkpt lat="46.93597" lon="5.88383">
        <ele>575</ele>
        <time>2009-04-19T12:22:14Z</time>
      </trkpt>
      <trkpt lat="46.93594" lon="5.88379">
        <ele>581</ele>
        <time>2009-04-19T12:28:39Z</time>
      </trkpt>
      <trkpt lat="46.93594" lon="5.88379">
        <ele>578</ele>
        <time>2009-04-19T12:28:40Z</time>
      </trkpt>
      <trkpt lat="46.93594" lon="5.88379">
        <ele>574</ele>
        <time>2009-04-19T12:28:41Z</time>
      </trkpt>
      <trkpt lat="46.93594" lon="5.88379">
        <ele>580</ele>
        <time>2009-04-19T12:28:42Z</time>
      </trkpt>
      <trkpt lat="46.93594" lon="5.88379">
        <ele>577</ele>
        <time>2009-04-19T12:28:44Z</time>
      </trkpt>
      <trkpt lat="46.93594" lon="5.88379">
        <ele>573</ele>
        <time>2009-04-19T12:28:59Z</time>
      </trkpt>
      <trkpt lat="46.93594" lon="5.88379">
        <ele>575</ele>
        <time>2009-04-19T12:29:00Z</time>
      </trkpt>
      <trkpt lat="46.93594" lon="5.88379">
        <ele>578</ele>
        <time>2009-04-19T12:29:12Z</time>
      </trkpt>
      <trkpt lat="46.93598" lon="5.88375">
        <ele>576</ele>
        <time>2009-04-19T12:56:43Z</time>
      </trkpt>
      <trkpt lat="46.93598" lon="5.88375">
        <ele>579</ele>
        <time>2009-04-19T12:56:45Z</time>
      </trkpt>
      <trkpt lat="46.93598" lon="5.88375">
        <ele>578</ele>
        <time>2009-04-19T12:56:46Z</time>
      </trkpt>
      <trkpt lat="46.93599" lon="5.88375">
        <ele>579</ele>
        <time>2009-04-19T12:57:38Z</time>
      </trkpt>
      <trkpt lat="46.93599" lon="5.88378">
        <ele>580</ele>
        <time>2009-04-19T13:11:42Z</time>
      </trkpt>
      <trkpt lat="46.93606" lon="5.88377">
        <ele>581</ele>
        <time>2009-04-19T13:13:01Z</time>
      </trkpt>
      <trkpt lat="46.93616" lon="5.88374">
        <ele>578</ele>
        <time>2009-04-19T13:13:44Z</time>
      </trkpt>
      <trkpt lat="46.93603" lon="5.88373">
        <ele>582</ele>
        <time>2009-04-19T13:17:24Z</time>
      </trkpt>
      <trkpt lat="46.93597" lon="5.88376">
        <ele>579</ele>
        <time>2009-04-19T13:19:42Z</time>
      </trkpt>
      <trkpt lat="46.93596" lon="5.88377">
        <ele>582</ele>
        <time>2009-04-19T13:23:08Z</time>
      </trkpt>
      <trkpt lat="46.93596" lon="5.88377">
        <ele>579</ele>
        <time>2009-04-19T13:23:10Z</time>
      </trkpt>
      <trkpt lat="46.93601" lon="5.8839">
        <ele>579</ele>
        <time>2009-04-19T13:30:19Z</time>
      </trkpt>
      <trkpt lat="46.93613" lon="5.88409">
        <ele>579</ele>
        <time>2009-04-19T13:30:43Z</time>
      </trkpt>
      <trkpt lat="46.93636" lon="5.88418">
        <ele>582</ele>
        <time>2009-04-19T13:31:08Z</time>
      </trkpt>
      <trkpt lat="46.93646" lon="5.88423">
        <ele>583</ele>
        <time>2009-04-19T13:31:24Z</time>
      </trkpt>
      <trkpt lat="46.93658" lon="5.88441">
        <ele>585</ele>
        <time>2009-04-19T13:31:49Z</time>
      </trkpt>
      <trkpt lat="46.93672" lon="5.88456">
        <ele>588</ele>
        <time>2009-04-19T13:32:15Z</time>
      </trkpt>
      <trkpt lat="46.9368" lon="5.88469">
        <ele>591</ele>
        <time>2009-04-19T13:32:32Z</time>
      </trkpt>
      <trkpt lat="46.93687" lon="5.8848">
        <ele>590</ele>
        <time>2009-04-19T13:32:50Z</time>
      </trkpt>
      <trkpt lat="46.93692" lon="5.88482">
        <ele>594</ele>
        <time>2009-04-19T13:32:57Z</time>
      </trkpt>
      <trkpt lat="46.93695" lon="5.88482">
        <ele>591</ele>
        <time>2009-04-19T13:32:59Z</time>
      </trkpt>
      <trkpt lat="46.93695" lon="5.88489">
        <ele>594</ele>
        <time>2009-04-19T13:33:02Z</time>
      </trkpt>
      <trkpt lat="46.93695" lon="5.88493">
        <ele>594</ele>
        <time>2009-04-19T13:33:08Z</time>
      </trkpt>
      <trkpt lat="46.93703" lon="5.88502">
        <ele>597</ele>
        <time>2009-04-19T13:33:22Z</time>
      </trkpt>
      <trkpt lat="46.93707" lon="5.88504">
        <ele>593</ele>
        <time>2009-04-19T13:33:26Z</time>
      </trkpt>
      <trkpt lat="46.93709" lon="5.88512">
        <ele>597</ele>
        <time>2009-04-19T13:33:33Z</time>
      </trkpt>
      <trkpt lat="46.9371" lon="5.88512">
        <ele>597</ele>
        <time>2009-04-19T13:33:34Z</time>
      </trkpt>
      <trkpt lat="46.9372" lon="5.88533">
        <ele>601</ele>
        <time>2009-04-19T13:33:55Z</time>
      </trkpt>
      <trkpt lat="46.93724" lon="5.88541">
        <ele>601</ele>
        <time>2009-04-19T13:34:04Z</time>
      </trkpt>
      <trkpt lat="46.93731" lon="5.88559">
        <ele>604</ele>
        <time>2009-04-19T13:34:21Z</time>
      </trkpt>
      <trkpt lat="46.93744" lon="5.88561">
        <ele>605</ele>
        <time>2009-04-19T13:34:43Z</time>
      </trkpt>
      <trkpt lat="46.93748" lon="5.88594">
        <ele>605</ele>
        <time>2009-04-19T13:35:01Z</time>
      </trkpt>
      <trkpt lat="46.93744" lon="5.886">
        <ele>606</ele>
        <time>2009-04-19T13:35:18Z</time>
      </trkpt>
      <trkpt lat="46.93747" lon="5.88616">
        <ele>610</ele>
        <time>2009-04-19T13:38:19Z</time>
      </trkpt>
      <trkpt lat="46.93753" lon="5.88635">
        <ele>611</ele>
        <time>2009-04-19T13:38:35Z</time>
      </trkpt>
      <trkpt lat="46.93762" lon="5.88648">
        <ele>612</ele>
        <time>2009-04-19T13:38:47Z</time>
      </trkpt>
      <trkpt lat="46.93766" lon="5.88655">
        <ele>611</ele>
        <time>2009-04-19T13:38:52Z</time>
      </trkpt>
      <trkpt lat="46.93774" lon="5.88665">
        <ele>612</ele>
        <time>2009-04-19T13:39:02Z</time>
      </trkpt>
      <trkpt lat="46.93785" lon="5.88677">
        <ele>612</ele>
        <time>2009-04-19T13:39:15Z</time>
      </trkpt>
      <trkpt lat="46.93795" lon="5.88691">
        <ele>616</ele>
        <time>2009-04-19T13:39:31Z</time>
      </trkpt>
      <trkpt lat="46.93796" lon="5.88692">
        <ele>615</ele>
        <time>2009-04-19T13:39:32Z</time>
      </trkpt>
      <trkpt lat="46.93798" lon="5.88695">
        <ele>614</ele>
        <time>2009-04-19T13:39:35Z</time>
      </trkpt>
      <trkpt lat="46.938" lon="5.88699">
        <ele>616</ele>
        <time>2009-04-19T13:39:39Z</time>
      </trkpt>
      <trkpt lat="46.93803" lon="5.88707">
        <ele>617</ele>
        <time>2009-04-19T13:39:46Z</time>
      </trkpt>
      <trkpt lat="46.93808" lon="5.88717">
        <ele>618</ele>
        <time>2009-04-19T13:39:55Z</time>
      </trkpt>
      <trkpt lat="46.9381" lon="5.88721">
        <ele>617</ele>
        <time>2009-04-19T13:40:00Z</time>
      </trkpt>
      <trkpt lat="46.93813" lon="5.88722">
        <ele>619</ele>
        <time>2009-04-19T13:40:03Z</time>
      </trkpt>
      <trkpt lat="46.93826" lon="5.88741">
        <ele>619</ele>
        <time>2009-04-19T13:40:28Z</time>
      </trkpt>
      <trkpt lat="46.93834" lon="5.88741">
        <ele>622</ele>
        <time>2009-04-19T13:40:35Z</time>
      </trkpt>
      <trkpt lat="46.93843" lon="5.88749">
        <ele>624</ele>
        <time>2009-04-19T13:40:50Z</time>
      </trkpt>
      <trkpt lat="46.93846" lon="5.88753">
        <ele>624</ele>
        <time>2009-04-19T13:40:54Z</time>
      </trkpt>
      <trkpt lat="46.93863" lon="5.88764">
        <ele>625</ele>
        <time>2009-04-19T13:41:15Z</time>
      </trkpt>
      <trkpt lat="46.93873" lon="5.88769">
        <ele>621</ele>
        <time>2009-04-19T13:41:25Z</time>
      </trkpt>
      <trkpt lat="46.93876" lon="5.8877">
        <ele>625</ele>
        <time>2009-04-19T13:41:30Z</time>
      </trkpt>
      <trkpt lat="46.93885" lon="5.88764">
        <ele>628</ele>
        <time>2009-04-19T13:41:48Z</time>
      </trkpt>
      <trkpt lat="46.93891" lon="5.88755">
        <ele>628</ele>
        <time>2009-04-19T13:42:03Z</time>
      </trkpt>
      <trkpt lat="46.93896" lon="5.88754">
        <ele>633</ele>
        <time>2009-04-19T13:42:09Z</time>
      </trkpt>
      <trkpt lat="46.93902" lon="5.8875">
        <ele>632</ele>
        <time>2009-04-19T13:42:29Z</time>
      </trkpt>
      <trkpt lat="46.93912" lon="5.88745">
        <ele>632</ele>
        <time>2009-04-19T13:46:19Z</time>
      </trkpt>
      <trkpt lat="46.93921" lon="5.88757">
        <ele>634</ele>
        <time>2009-04-19T13:48:21Z</time>
      </trkpt>
      <trkpt lat="46.9392" lon="5.88765">
        <ele>631</ele>
        <time>2009-04-19T13:48:37Z</time>
      </trkpt>
      <trkpt lat="46.9392" lon="5.88765">
        <ele>634</ele>
        <time>2009-04-19T13:48:38Z</time>
      </trkpt>
      <trkpt lat="46.9392" lon="5.88766">
        <ele>633</ele>
        <time>2009-04-19T13:48:42Z</time>
      </trkpt>
      <trkpt lat="46.93929" lon="5.88775">
        <ele>634</ele>
        <time>2009-04-19T13:49:10Z</time>
      </trkpt>
      <trkpt lat="46.93929" lon="5.88781">
        <ele>631</ele>
        <time>2009-04-19T13:49:41Z</time>
      </trkpt>
      <trkpt lat="46.93929" lon="5.88782">
        <ele>636</ele>
        <time>2009-04-19T13:49:42Z</time>
      </trkpt>
      <trkpt lat="46.93929" lon="5.88782">
        <ele>634</ele>
        <time>2009-04-19T13:49:43Z</time>
      </trkpt>
      <trkpt lat="46.93934" lon="5.88797">
        <ele>634</ele>
        <time>2009-04-19T13:50:07Z</time>
      </trkpt>
      <trkpt lat="46.93956" lon="5.88808">
        <ele>635</ele>
        <time>2009-04-19T13:50:47Z</time>
      </trkpt>
      <trkpt lat="46.93959" lon="5.88817">
        <ele>638</ele>
        <time>2009-04-19T13:51:00Z</time>
      </trkpt>
      <trkpt lat="46.93964" lon="5.88815">
        <ele>639</ele>
        <time>2009-04-19T13:51:13Z</time>
      </trkpt>
      <trkpt lat="46.93974" lon="5.88814">
        <ele>640</ele>
        <time>2009-04-19T13:51:29Z</time>
      </trkpt>
      <trkpt lat="46.93978" lon="5.88816">
        <ele>633</ele>
        <time>2009-04-19T13:51:36Z</time>
      </trkpt>
      <trkpt lat="46.93978" lon="5.88816">
        <ele>639</ele>
        <time>2009-04-19T13:51:37Z</time>
      </trkpt>
      <trkpt lat="46.93979" lon="5.88816">
        <ele>640</ele>
        <time>2009-04-19T13:51:39Z</time>
      </trkpt>
      <trkpt lat="46.93986" lon="5.88821">
        <ele>642</ele>
        <time>2009-04-19T13:51:55Z</time>
      </trkpt>
      <trkpt lat="46.94001" lon="5.88837">
        <ele>644</ele>
        <time>2009-04-19T13:52:27Z</time>
      </trkpt>
      <trkpt lat="46.94007" lon="5.88845">
        <ele>643</ele>
        <time>2009-04-19T13:52:43Z</time>
      </trkpt>
      <trkpt lat="46.94012" lon="5.88852">
        <ele>648</ele>
        <time>2009-04-19T13:52:49Z</time>
      </trkpt>
      <trkpt lat="46.94029" lon="5.88867">
        <ele>650</ele>
        <time>2009-04-19T13:53:11Z</time>
      </trkpt>
      <trkpt lat="46.9403" lon="5.8887">
        <ele>648</ele>
        <time>2009-04-19T13:53:14Z</time>
      </trkpt>
      <trkpt lat="46.94031" lon="5.88872">
        <ele>650</ele>
        <time>2009-04-19T13:53:17Z</time>
      </trkpt>
      <trkpt lat="46.94042" lon="5.88889">
        <ele>649</ele>
        <time>2009-04-19T13:53:36Z</time>
      </trkpt>
      <trkpt lat="46.94042" lon="5.8889">
        <ele>651</ele>
        <time>2009-04-19T13:53:37Z</time>
      </trkpt>
      <trkpt lat="46.94059" lon="5.88918">
        <ele>652</ele>
        <time>2009-04-19T13:53:59Z</time>
      </trkpt>
      <trkpt lat="46.9406" lon="5.8892">
        <ele>654</ele>
        <time>2009-04-19T13:54:05Z</time>
      </trkpt>
      <trkpt lat="46.9406" lon="5.88922">
        <ele>650</ele>
        <time>2009-04-19T13:54:08Z</time>
      </trkpt>
      <trkpt lat="46.94061" lon="5.88922">
        <ele>653</ele>
        <time>2009-04-19T13:54:09Z</time>
      </trkpt>
      <trkpt lat="46.94064" lon="5.88926">
        <ele>657</ele>
        <time>2009-04-19T13:54:14Z</time>
      </trkpt>
      <trkpt lat="46.94075" lon="5.88938">
        <ele>656</ele>
        <time>2009-04-19T13:54:31Z</time>
      </trkpt>
      <trkpt lat="46.94087" lon="5.88949">
        <ele>663</ele>
        <time>2009-04-19T13:54:51Z</time>
      </trkpt>
      <trkpt lat="46.94088" lon="5.8895">
        <ele>659</ele>
        <time>2009-04-19T13:54:52Z</time>
      </trkpt>
      <trkpt lat="46.94091" lon="5.88954">
        <ele>660</ele>
        <time>2009-04-19T13:54:57Z</time>
      </trkpt>
      <trkpt lat="46.9411" lon="5.88977">
        <ele>661</ele>
        <time>2009-04-19T13:55:21Z</time>
      </trkpt>
      <trkpt lat="46.94118" lon="5.8899">
        <ele>656</ele>
        <time>2009-04-19T13:55:39Z</time>
      </trkpt>
      <trkpt lat="46.94119" lon="5.88991">
        <ele>660</ele>
        <time>2009-04-19T13:55:40Z</time>
      </trkpt>
      <trkpt lat="46.94129" lon="5.89007">
        <ele>662</ele>
        <time>2009-04-19T13:55:56Z</time>
      </trkpt>
      <trkpt lat="46.94141" lon="5.89018">
        <ele>663</ele>
        <time>2009-04-19T13:56:12Z</time>
      </trkpt>
      <trkpt lat="46.94152" lon="5.8904">
        <ele>659</ele>
        <time>2009-04-19T13:56:30Z</time>
      </trkpt>
      <trkpt lat="46.94152" lon="5.89041">
        <ele>663</ele>
        <time>2009-04-19T13:56:31Z</time>
      </trkpt>
      <trkpt lat="46.94169" lon="5.89054">
        <ele>663</ele>
        <time>2009-04-19T13:56:50Z</time>
      </trkpt>
      <trkpt lat="46.94169" lon="5.89055">
        <ele>665</ele>
        <time>2009-04-19T13:56:53Z</time>
      </trkpt>
      <trkpt lat="46.94172" lon="5.89056">
        <ele>661</ele>
        <time>2009-04-19T13:56:58Z</time>
      </trkpt>
      <trkpt lat="46.94173" lon="5.89056">
        <ele>666</ele>
        <time>2009-04-19T13:56:59Z</time>
      </trkpt>
      <trkpt lat="46.94181" lon="5.89065">
        <ele>670</ele>
        <time>2009-04-19T13:57:14Z</time>
      </trkpt>
      <trkpt lat="46.94185" lon="5.89068">
        <ele>666</ele>
        <time>2009-04-19T13:57:22Z</time>
      </trkpt>
      <trkpt lat="46.94189" lon="5.89073">
        <ele>669</ele>
        <time>2009-04-19T13:57:30Z</time>
      </trkpt>
      <trkpt lat="46.94192" lon="5.89076">
        <ele>669</ele>
        <time>2009-04-19T13:57:40Z</time>
      </trkpt>
      <trkpt lat="46.94203" lon="5.89089">
        <ele>672</ele>
        <time>2009-04-19T13:57:54Z</time>
      </trkpt>
      <trkpt lat="46.9422" lon="5.891">
        <ele>673</ele>
        <time>2009-04-19T13:58:16Z</time>
      </trkpt>
      <trkpt lat="46.94222" lon="5.89102">
        <ele>677</ele>
        <time>2009-04-19T13:58:20Z</time>
      </trkpt>
      <trkpt lat="46.94234" lon="5.89111">
        <ele>675</ele>
        <time>2009-04-19T13:58:42Z</time>
      </trkpt>
      <trkpt lat="46.94235" lon="5.89111">
        <ele>672</ele>
        <time>2009-04-19T13:58:56Z</time>
      </trkpt>
      <trkpt lat="46.94235" lon="5.89111">
        <ele>675</ele>
        <time>2009-04-19T13:58:57Z</time>
      </trkpt>
      <trkpt lat="46.94235" lon="5.89111">
        <ele>669</ele>
        <time>2009-04-19T13:58:58Z</time>
      </trkpt>
      <trkpt lat="46.94236" lon="5.89111">
        <ele>676</ele>
        <time>2009-04-19T13:58:59Z</time>
      </trkpt>
      <trkpt lat="46.94248" lon="5.89127">
        <ele>676</ele>
        <time>2009-04-19T13:59:40Z</time>
      </trkpt>
      <trkpt lat="46.94236" lon="5.89126">
        <ele>677</ele>
        <time>2009-04-19T14:00:33Z</time>
      </trkpt>
      <trkpt lat="46.94247" lon="5.89121">
        <ele>678</ele>
        <time>2009-04-19T14:02:52Z</time>
      </trkpt>
      <trkpt lat="46.94258" lon="5.89132">
        <ele>681</ele>
        <time>2009-04-19T14:04:16Z</time>
      </trkpt>
      <trkpt lat="46.94274" lon="5.89138">
        <ele>683</ele>
        <time>2009-04-19T14:04:36Z</time>
      </trkpt>
      <trkpt lat="46.94291" lon="5.89156">
        <ele>685</ele>
        <time>2009-04-19T14:04:57Z</time>
      </trkpt>
      <trkpt lat="46.94301" lon="5.89165">
        <ele>687</ele>
        <time>2009-04-19T14:05:14Z</time>
      </trkpt>
      <trkpt lat="46.94321" lon="5.89176">
        <ele>689</ele>
        <time>2009-04-19T14:05:38Z</time>
      </trkpt>
      <trkpt lat="46.94331" lon="5.8919">
        <ele>690</ele>
        <time>2009-04-19T14:05:59Z</time>
      </trkpt>
      <trkpt lat="46.9435" lon="5.8923">
        <ele>691</ele>
        <time>2009-04-19T14:06:24Z</time>
      </trkpt>
      <trkpt lat="46.9437" lon="5.8925">
        <ele>692</ele>
        <time>2009-04-19T14:06:41Z</time>
      </trkpt>
      <trkpt lat="46.94377" lon="5.89256">
        <ele>692</ele>
        <time>2009-04-19T14:06:48Z</time>
      </trkpt>
      <trkpt lat="46.94382" lon="5.89267">
        <ele>692</ele>
        <time>2009-04-19T14:06:55Z</time>
      </trkpt>
      <trkpt lat="46.94388" lon="5.89277">
        <ele>694</ele>
        <time>2009-04-19T14:07:05Z</time>
      </trkpt>
      <trkpt lat="46.94398" lon="5.89294">
        <ele>694</ele>
        <time>2009-04-19T14:07:17Z</time>
      </trkpt>
      <trkpt lat="46.94405" lon="5.89305">
        <ele>695</ele>
        <time>2009-04-19T14:07:27Z</time>
      </trkpt>
      <trkpt lat="46.94408" lon="5.8931">
        <ele>695</ele>
        <time>2009-04-19T14:07:33Z</time>
      </trkpt>
      <trkpt lat="46.94415" lon="5.89324">
        <ele>696</ele>
        <time>2009-04-19T14:07:45Z</time>
      </trkpt>
      <trkpt lat="46.94417" lon="5.89326">
        <ele>696</ele>
        <time>2009-04-19T14:07:58Z</time>
      </trkpt>
      <trkpt lat="46.94427" lon="5.89341">
        <ele>697</ele>
        <time>2009-04-19T14:08:17Z</time>
      </trkpt>
      <trkpt lat="46.94432" lon="5.89347">
        <ele>698</ele>
        <time>2009-04-19T14:08:22Z</time>
      </trkpt>
      <trkpt lat="46.94438" lon="5.89352">
        <ele>698</ele>
        <time>2009-04-19T14:08:28Z</time>
      </trkpt>
      <trkpt lat="46.94447" lon="5.89358">
        <ele>698</ele>
        <time>2009-04-19T14:08:37Z</time>
      </trkpt>
      <trkpt lat="46.9445" lon="5.89363">
        <ele>699</ele>
        <time>2009-04-19T14:08:40Z</time>
      </trkpt>
      <trkpt lat="46.94454" lon="5.8937">
        <ele>700</ele>
        <time>2009-04-19T14:08:46Z</time>
      </trkpt>
      <trkpt lat="46.94467" lon="5.89386">
        <ele>700</ele>
        <time>2009-04-19T14:09:02Z</time>
      </trkpt>
      <trkpt lat="46.9448" lon="5.89402">
        <ele>702</ele>
        <time>2009-04-19T14:09:18Z</time>
      </trkpt>
      <trkpt lat="46.94489" lon="5.89411">
        <ele>703</ele>
        <time>2009-04-19T14:09:32Z</time>
      </trkpt>
      <trkpt lat="46.945" lon="5.89425">
        <ele>704</ele>
        <time>2009-04-19T14:09:51Z</time>
      </trkpt>
      <trkpt lat="46.94503" lon="5.89428">
        <ele>707</ele>
        <time>2009-04-19T14:10:24Z</time>
      </trkpt>
      <trkpt lat="46.94503" lon="5.89428">
        <ele>700</ele>
        <time>2009-04-19T14:10:25Z</time>
      </trkpt>
      <trkpt lat="46.94503" lon="5.89428">
        <ele>708</ele>
        <time>2009-04-19T14:10:26Z</time>
      </trkpt>
      <trkpt lat="46.94503" lon="5.89428">
        <ele>703</ele>
        <time>2009-04-19T14:10:29Z</time>
      </trkpt>
      <trkpt lat="46.94503" lon="5.89437">
        <ele>705</ele>
        <time>2009-04-19T14:11:09Z</time>
      </trkpt>
      <trkpt lat="46.94507" lon="5.89438">
        <ele>706</ele>
        <time>2009-04-19T14:11:35Z</time>
      </trkpt>
      <trkpt lat="46.94516" lon="5.8943">
        <ele>707</ele>
        <time>2009-04-19T14:12:18Z</time>
      </trkpt>
      <trkpt lat="46.94525" lon="5.89449">
        <ele>707</ele>
        <time>2009-04-19T14:12:30Z</time>
      </trkpt>
      <trkpt lat="46.9453" lon="5.89454">
        <ele>707</ele>
        <time>2009-04-19T14:12:35Z</time>
      </trkpt>
      <trkpt lat="46.94538" lon="5.89464">
        <ele>707</ele>
        <time>2009-04-19T14:12:43Z</time>
      </trkpt>
      <trkpt lat="46.94549" lon="5.89478">
        <ele>707</ele>
        <time>2009-04-19T14:12:56Z</time>
      </trkpt>
      <trkpt lat="46.9456" lon="5.89484">
        <ele>708</ele>
        <time>2009-04-19T14:13:08Z</time>
      </trkpt>
      <trkpt lat="46.94567" lon="5.89489">
        <ele>708</ele>
        <time>2009-04-19T14:13:16Z</time>
      </trkpt>
      <trkpt lat="46.94574" lon="5.8949">
        <ele>708</ele>
        <time>2009-04-19T14:13:24Z</time>
      </trkpt>
      <trkpt lat="46.94583" lon="5.89494">
        <ele>709</ele>
        <time>2009-04-19T14:13:33Z</time>
      </trkpt>
      <trkpt lat="46.94598" lon="5.89502">
        <ele>710</ele>
        <time>2009-04-19T14:13:46Z</time>
      </trkpt>
      <trkpt lat="46.94613" lon="5.89506">
        <ele>710</ele>
        <time>2009-04-19T14:14:00Z</time>
      </trkpt>
      <trkpt lat="46.94618" lon="5.89506">
        <ele>710</ele>
        <time>2009-04-19T14:14:06Z</time>
      </trkpt>
      <trkpt lat="46.94634" lon="5.89499">
        <ele>711</ele>
        <time>2009-04-19T14:14:22Z</time>
      </trkpt>
      <trkpt lat="46.94636" lon="5.89496">
        <ele>712</ele>
        <time>2009-04-19T14:14:36Z</time>
      </trkpt>
      <trkpt lat="46.94641" lon="5.89507">
        <ele>711</ele>
        <time>2009-04-19T14:18:19Z</time>
      </trkpt>
      <trkpt lat="46.94644" lon="5.89523">
        <ele>711</ele>
        <time>2009-04-19T14:18:36Z</time>
      </trkpt>
      <trkpt lat="46.94647" lon="5.89527">
        <ele>712</ele>
        <time>2009-04-19T14:18:42Z</time>
      </trkpt>
      <trkpt lat="46.94648" lon="5.89537">
        <ele>712</ele>
        <time>2009-04-19T14:18:49Z</time>
      </trkpt>
      <trkpt lat="46.94648" lon="5.89556">
        <ele>711</ele>
        <time>2009-04-19T14:19:01Z</time>
      </trkpt>
      <trkpt lat="46.94651" lon="5.89572">
        <ele>711</ele>
        <time>2009-04-19T14:19:12Z</time>
      </trkpt>
      <trkpt lat="46.94653" lon="5.89602">
        <ele>709</ele>
        <time>2009-04-19T14:19:35Z</time>
      </trkpt>
      <trkpt lat="46.94656" lon="5.89614">
        <ele>708</ele>
        <time>2009-04-19T14:19:48Z</time>
      </trkpt>
      <trkpt lat="46.94658" lon="5.8962">
        <ele>708</ele>
        <time>2009-04-19T14:19:53Z</time>
      </trkpt>
      <trkpt lat="46.9466" lon="5.89623">
        <ele>707</ele>
        <time>2009-04-19T14:19:56Z</time>
      </trkpt>
      <trkpt lat="46.94663" lon="5.89641">
        <ele>706</ele>
        <time>2009-04-19T14:20:09Z</time>
      </trkpt>
      <trkpt lat="46.94665" lon="5.89646">
        <ele>705</ele>
        <time>2009-04-19T14:20:22Z</time>
      </trkpt>
      <trkpt lat="46.94668" lon="5.89659">
        <ele>705</ele>
        <time>2009-04-19T14:20:35Z</time>
      </trkpt>
      <trkpt lat="46.94678" lon="5.89677">
        <ele>703</ele>
        <time>2009-04-19T14:20:52Z</time>
      </trkpt>
      <trkpt lat="46.94682" lon="5.89683">
        <ele>702</ele>
        <time>2009-04-19T14:20:57Z</time>
      </trkpt>
      <trkpt lat="46.94685" lon="5.89699">
        <ele>700</ele>
        <time>2009-04-19T14:21:10Z</time>
      </trkpt>
      <trkpt lat="46.94679" lon="5.89727">
        <ele>697</ele>
        <time>2009-04-19T14:21:24Z</time>
      </trkpt>
      <trkpt lat="46.94678" lon="5.89727">
        <ele>696</ele>
        <time>2009-04-19T14:21:25Z</time>
      </trkpt>
      <trkpt lat="46.94678" lon="5.89737">
        <ele>695</ele>
        <time>2009-04-19T14:21:31Z</time>
      </trkpt>
      <trkpt lat="46.9469" lon="5.89748">
        <ele>693</ele>
        <time>2009-04-19T14:21:46Z</time>
      </trkpt>
      <trkpt lat="46.94701" lon="5.89771">
        <ele>691</ele>
        <time>2009-04-19T14:22:06Z</time>
      </trkpt>
      <trkpt lat="46.94707" lon="5.89787">
        <ele>689</ele>
        <time>2009-04-19T14:22:18Z</time>
      </trkpt>
      <trkpt lat="46.9472" lon="5.89814">
        <ele>687</ele>
        <time>2009-04-19T14:22:39Z</time>
      </trkpt>
      <trkpt lat="46.94732" lon="5.89838">
        <ele>685</ele>
        <time>2009-04-19T14:22:57Z</time>
      </trkpt>
      <trkpt lat="46.94748" lon="5.89849">
        <ele>683</ele>
        <time>2009-04-19T14:23:11Z</time>
      </trkpt>
      <trkpt lat="46.94756" lon="5.89857">
        <ele>681</ele>
        <time>2009-04-19T14:23:20Z</time>
      </trkpt>
      <trkpt lat="46.94764" lon="5.89861">
        <ele>681</ele>
        <time>2009-04-19T14:23:28Z</time>
      </trkpt>
      <trkpt lat="46.94777" lon="5.89874">
        <ele>680</ele>
        <time>2009-04-19T14:23:39Z</time>
      </trkpt>
      <trkpt lat="46.94792" lon="5.89889">
        <ele>678</ele>
        <time>2009-04-19T14:23:55Z</time>
      </trkpt>
      <trkpt lat="46.94805" lon="5.89899">
        <ele>676</ele>
        <time>2009-04-19T14:24:08Z</time>
      </trkpt>
      <trkpt lat="46.94808" lon="5.899">
        <ele>676</ele>
        <time>2009-04-19T14:24:11Z</time>
      </trkpt>
      <trkpt lat="46.94814" lon="5.89913">
        <ele>675</ele>
        <time>2009-04-19T14:24:19Z</time>
      </trkpt>
      <trkpt lat="46.94831" lon="5.89906">
        <ele>674</ele>
        <time>2009-04-19T14:24:31Z</time>
      </trkpt>
      <trkpt lat="46.94845" lon="5.89908">
        <ele>674</ele>
        <time>2009-04-19T14:24:42Z</time>
      </trkpt>
      <trkpt lat="46.94847" lon="5.89909">
        <ele>674</ele>
        <time>2009-04-19T14:24:44Z</time>
      </trkpt>
      <trkpt lat="46.94851" lon="5.89913">
        <ele>675</ele>
        <time>2009-04-19T14:24:48Z</time>
      </trkpt>
      <trkpt lat="46.94853" lon="5.89921">
        <ele>675</ele>
        <time>2009-04-19T14:24:52Z</time>
      </trkpt>
      <trkpt lat="46.94861" lon="5.89931">
        <ele>674</ele>
        <time>2009-04-19T14:25:01Z</time>
      </trkpt>
      <trkpt lat="46.94866" lon="5.8994">
        <ele>674</ele>
        <time>2009-04-19T14:25:08Z</time>
      </trkpt>
      <trkpt lat="46.94877" lon="5.89961">
        <ele>672</ele>
        <time>2009-04-19T14:25:23Z</time>
      </trkpt>
      <trkpt lat="46.9488" lon="5.8997">
        <ele>672</ele>
        <time>2009-04-19T14:25:28Z</time>
      </trkpt>
      <trkpt lat="46.94881" lon="5.89974">
        <ele>672</ele>
        <time>2009-04-19T14:25:31Z</time>
      </trkpt>
      <trkpt lat="46.94887" lon="5.89994">
        <ele>669</ele>
        <time>2009-04-19T14:25:44Z</time>
      </trkpt>
      <trkpt lat="46.94891" lon="5.90002">
        <ele>668</ele>
        <time>2009-04-19T14:25:50Z</time>
      </trkpt>
      <trkpt lat="46.94897" lon="5.90023">
        <ele>665</ele>
        <time>2009-04-19T14:26:02Z</time>
      </trkpt>
      <trkpt lat="46.94904" lon="5.90041">
        <ele>663</ele>
        <time>2009-04-19T14:26:14Z</time>
      </trkpt>
      <trkpt lat="46.94907" lon="5.9005">
        <ele>663</ele>
        <time>2009-04-19T14:26:18Z</time>
      </trkpt>
      <trkpt lat="46.94912" lon="5.90065">
        <ele>663</ele>
        <time>2009-04-19T14:26:28Z</time>
      </trkpt>
      <trkpt lat="46.94916" lon="5.90081">
        <ele>662</ele>
        <time>2009-04-19T14:26:36Z</time>
      </trkpt>
      <trkpt lat="46.94917" lon="5.90086">
        <ele>662</ele>
        <time>2009-04-19T14:26:38Z</time>
      </trkpt>
      <trkpt lat="46.94925" lon="5.90112">
        <ele>660</ele>
        <time>2009-04-19T14:26:54Z</time>
      </trkpt>
      <trkpt lat="46.94928" lon="5.90122">
        <ele>660</ele>
        <time>2009-04-19T14:27:00Z</time>
      </trkpt>
      <trkpt lat="46.94936" lon="5.90142">
        <ele>658</ele>
        <time>2009-04-19T14:27:14Z</time>
      </trkpt>
      <trkpt lat="46.94937" lon="5.90146">
        <ele>658</ele>
        <time>2009-04-19T14:27:16Z</time>
      </trkpt>
      <trkpt lat="46.9494" lon="5.90157">
        <ele>656</ele>
        <time>2009-04-19T14:27:23Z</time>
      </trkpt>
      <trkpt lat="46.94944" lon="5.90165">
        <ele>655</ele>
        <time>2009-04-19T14:27:29Z</time>
      </trkpt>
      <trkpt lat="46.94955" lon="5.90187">
        <ele>654</ele>
        <time>2009-04-19T14:27:45Z</time>
      </trkpt>
      <trkpt lat="46.94958" lon="5.90191">
        <ele>654</ele>
        <time>2009-04-19T14:27:49Z</time>
      </trkpt>
      <trkpt lat="46.94958" lon="5.90203">
        <ele>653</ele>
        <time>2009-04-19T14:27:53Z</time>
      </trkpt>
      <trkpt lat="46.94962" lon="5.90229">
        <ele>652</ele>
        <time>2009-04-19T14:28:07Z</time>
      </trkpt>
      <trkpt lat="46.9497" lon="5.90261">
        <ele>650</ele>
        <time>2009-04-19T14:28:26Z</time>
      </trkpt>
      <trkpt lat="46.9497" lon="5.90267">
        <ele>651</ele>
        <time>2009-04-19T14:28:31Z</time>
      </trkpt>
      <trkpt lat="46.9497" lon="5.90271">
        <ele>650</ele>
        <time>2009-04-19T14:28:33Z</time>
      </trkpt>
      <trkpt lat="46.94973" lon="5.90297">
        <ele>648</ele>
        <time>2009-04-19T14:28:50Z</time>
      </trkpt>
      <trkpt lat="46.94976" lon="5.90324">
        <ele>647</ele>
        <time>2009-04-19T14:29:05Z</time>
      </trkpt>
      <trkpt lat="46.94979" lon="5.90343">
        <ele>645</ele>
        <time>2009-04-19T14:29:20Z</time>
      </trkpt>
      <trkpt lat="46.94982" lon="5.90352">
        <ele>645</ele>
        <time>2009-04-19T14:30:00Z</time>
      </trkpt>
      <trkpt lat="46.94983" lon="5.90383">
        <ele>643</ele>
        <time>2009-04-19T14:32:41Z</time>
      </trkpt>
      <trkpt lat="46.94984" lon="5.90396">
        <ele>642</ele>
        <time>2009-04-19T14:32:57Z</time>
      </trkpt>
      <trkpt lat="46.94988" lon="5.90425">
        <ele>640</ele>
        <time>2009-04-19T14:33:18Z</time>
      </trkpt>
      <trkpt lat="46.9499" lon="5.90446">
        <ele>639</ele>
        <time>2009-04-19T14:33:56Z</time>
      </trkpt>
      <trkpt lat="46.94995" lon="5.90471">
        <ele>638</ele>
        <time>2009-04-19T14:34:10Z</time>
      </trkpt>
      <trkpt lat="46.95006" lon="5.90487">
        <ele>637</ele>
        <time>2009-04-19T14:34:27Z</time>
      </trkpt>
      <trkpt lat="46.95006" lon="5.90502">
        <ele>637</ele>
        <time>2009-04-19T14:34:45Z</time>
      </trkpt>
      <trkpt lat="46.95018" lon="5.90517">
        <ele>636</ele>
        <time>2009-04-19T14:35:03Z</time>
      </trkpt>
      <trkpt lat="46.95022" lon="5.9053">
        <ele>636</ele>
        <time>2009-04-19T14:35:23Z</time>
      </trkpt>
      <trkpt lat="46.95037" lon="5.90559">
        <ele>634</ele>
        <time>2009-04-19T14:35:42Z</time>
      </trkpt>
      <trkpt lat="46.95045" lon="5.90579">
        <ele>634</ele>
        <time>2009-04-19T14:35:56Z</time>
      </trkpt>
      <trkpt lat="46.95047" lon="5.90594">
        <ele>634</ele>
        <time>2009-04-19T14:36:05Z</time>
      </trkpt>
      <trkpt lat="46.95049" lon="5.90603">
        <ele>634</ele>
        <time>2009-04-19T14:36:09Z</time>
      </trkpt>
      <trkpt lat="46.95058" lon="5.90638">
        <ele>633</ele>
        <time>2009-04-19T14:36:27Z</time>
      </trkpt>
      <trkpt lat="46.95066" lon="5.90658">
        <ele>632</ele>
        <time>2009-04-19T14:36:44Z</time>
      </trkpt>
      <trkpt lat="46.95066" lon="5.90661">
        <ele>632</ele>
        <time>2009-04-19T14:37:10Z</time>
      </trkpt>
      <trkpt lat="46.95073" lon="5.90683">
        <ele>632</ele>
        <time>2009-04-19T14:37:53Z</time>
      </trkpt>
      <trkpt lat="46.9509" lon="5.90717">
        <ele>631</ele>
        <time>2009-04-19T14:38:12Z</time>
      </trkpt>
      <trkpt lat="46.95096" lon="5.9074">
        <ele>631</ele>
        <time>2009-04-19T14:38:26Z</time>
      </trkpt>
      <trkpt lat="46.95097" lon="5.90741">
        <ele>631</ele>
        <time>2009-04-19T14:38:27Z</time>
      </trkpt>
      <trkpt lat="46.95105" lon="5.9076">
        <ele>631</ele>
        <time>2009-04-19T14:38:41Z</time>
      </trkpt>
      <trkpt lat="46.95112" lon="5.90787">
        <ele>631</ele>
        <time>2009-04-19T14:38:58Z</time>
      </trkpt>
      <trkpt lat="46.95119" lon="5.90799">
        <ele>631</ele>
        <time>2009-04-19T14:39:07Z</time>
      </trkpt>
      <trkpt lat="46.95123" lon="5.90821">
        <ele>631</ele>
        <time>2009-04-19T14:39:20Z</time>
      </trkpt>
      <trkpt lat="46.95123" lon="5.90826">
        <ele>631</ele>
        <time>2009-04-19T14:39:22Z</time>
      </trkpt>
      <trkpt lat="46.95128" lon="5.90856">
        <ele>631</ele>
        <time>2009-04-19T14:39:38Z</time>
      </trkpt>
      <trkpt lat="46.95129" lon="5.90856">
        <ele>632</ele>
        <time>2009-04-19T14:39:39Z</time>
      </trkpt>
      <trkpt lat="46.95129" lon="5.90863">
        <ele>632</ele>
        <time>2009-04-19T14:39:43Z</time>
      </trkpt>
      <trkpt lat="46.95132" lon="5.90893">
        <ele>632</ele>
        <time>2009-04-19T14:40:01Z</time>
      </trkpt>
      <trkpt lat="46.95134" lon="5.90905">
        <ele>632</ele>
        <time>2009-04-19T14:40:07Z</time>
      </trkpt>
      <trkpt lat="46.95135" lon="5.90913">
        <ele>633</ele>
        <time>2009-04-19T14:40:11Z</time>
      </trkpt>
      <trkpt lat="46.95138" lon="5.90921">
        <ele>632</ele>
        <time>2009-04-19T14:40:17Z</time>
      </trkpt>
      <trkpt lat="46.9514" lon="5.90927">
        <ele>633</ele>
        <time>2009-04-19T14:40:22Z</time>
      </trkpt>
      <trkpt lat="46.95149" lon="5.90912">
        <ele>633</ele>
        <time>2009-04-19T14:40:30Z</time>
      </trkpt>
      <trkpt lat="46.95165" lon="5.9089">
        <ele>634</ele>
        <time>2009-04-19T14:40:46Z</time>
      </trkpt>
      <trkpt lat="46.95166" lon="5.90888">
        <ele>634</ele>
        <time>2009-04-19T14:40:48Z</time>
      </trkpt>
      <trkpt lat="46.95174" lon="5.90876">
        <ele>635</ele>
        <time>2009-04-19T14:40:58Z</time>
      </trkpt>
      <trkpt lat="46.95178" lon="5.90868">
        <ele>635</ele>
        <time>2009-04-19T14:41:03Z</time>
      </trkpt>
      <trkpt lat="46.95191" lon="5.90851">
        <ele>636</ele>
        <time>2009-04-19T14:41:17Z</time>
      </trkpt>
      <trkpt lat="46.95197" lon="5.90841">
        <ele>637</ele>
        <time>2009-04-19T14:41:24Z</time>
      </trkpt>
      <trkpt lat="46.95208" lon="5.90831">
        <ele>637</ele>
        <time>2009-04-19T14:41:36Z</time>
      </trkpt>
      <trkpt lat="46.95221" lon="5.90818">
        <ele>638</ele>
        <time>2009-04-19T14:41:48Z</time>
      </trkpt>
      <trkpt lat="46.95233" lon="5.90803">
        <ele>638</ele>
        <time>2009-04-19T14:42:01Z</time>
      </trkpt>
      <trkpt lat="46.95237" lon="5.90798">
        <ele>639</ele>
        <time>2009-04-19T14:42:05Z</time>
      </trkpt>
      <trkpt lat="46.95251" lon="5.90779">
        <ele>639</ele>
        <time>2009-04-19T14:42:20Z</time>
      </trkpt>
      <trkpt lat="46.9526" lon="5.90761">
        <ele>640</ele>
        <time>2009-04-19T14:42:32Z</time>
      </trkpt>
      <trkpt lat="46.95263" lon="5.90749">
        <ele>641</ele>
        <time>2009-04-19T14:42:40Z</time>
      </trkpt>
      <trkpt lat="46.95264" lon="5.90745">
        <ele>641</ele>
        <time>2009-04-19T14:42:55Z</time>
      </trkpt>
      <trkpt lat="46.95267" lon="5.90728">
        <ele>643</ele>
        <time>2009-04-19T14:43:44Z</time>
      </trkpt>
      <trkpt lat="46.95269" lon="5.90708">
        <ele>644</ele>
        <time>2009-04-19T14:43:59Z</time>
      </trkpt>
      <trkpt lat="46.95275" lon="5.90696">
        <ele>646</ele>
        <time>2009-04-19T14:44:12Z</time>
      </trkpt>
      <trkpt lat="46.95274" lon="5.90697">
        <ele>646</ele>
        <time>2009-04-19T14:44:34Z</time>
      </trkpt>
      <trkpt lat="46.95268" lon="5.90693">
        <ele>650</ele>
        <time>2009-04-19T14:48:55Z</time>
      </trkpt>
      <trkpt lat="46.95268" lon="5.90694">
        <ele>648</ele>
        <time>2009-04-19T14:49:50Z</time>
      </trkpt>
      <trkpt lat="46.95272" lon="5.90703">
        <ele>650</ele>
        <time>2009-04-19T14:51:26Z</time>
      </trkpt>
      <trkpt lat="46.95285" lon="5.90714">
        <ele>648</ele>
        <time>2009-04-19T14:51:38Z</time>
      </trkpt>
      <trkpt lat="46.95298" lon="5.90716">
        <ele>647</ele>
        <time>2009-04-19T14:51:53Z</time>
      </trkpt>
      <trkpt lat="46.95314" lon="5.90708">
        <ele>644</ele>
        <time>2009-04-19T14:52:10Z</time>
      </trkpt>
      <trkpt lat="46.95317" lon="5.90707">
        <ele>644</ele>
        <time>2009-04-19T14:52:12Z</time>
      </trkpt>
      <trkpt lat="46.95314" lon="5.9069">
        <ele>640</ele>
        <time>2009-04-19T14:52:26Z</time>
      </trkpt>
      <trkpt lat="46.95315" lon="5.90656">
        <ele>637</ele>
        <time>2009-04-19T14:52:41Z</time>
      </trkpt>
      <trkpt lat="46.95317" lon="5.90646">
        <ele>634</ele>
        <time>2009-04-19T14:52:53Z</time>
      </trkpt>
      <trkpt lat="46.95333" lon="5.90631">
        <ele>631</ele>
        <time>2009-04-19T14:53:08Z</time>
      </trkpt>
      <trkpt lat="46.95354" lon="5.90627">
        <ele>629</ele>
        <time>2009-04-19T14:53:23Z</time>
      </trkpt>
      <trkpt lat="46.95366" lon="5.90633">
        <ele>628</ele>
        <time>2009-04-19T14:53:30Z</time>
      </trkpt>
      <trkpt lat="46.95387" lon="5.90652">
        <ele>625</ele>
        <time>2009-04-19T14:53:47Z</time>
      </trkpt>
      <trkpt lat="46.95394" lon="5.90663">
        <ele>624</ele>
        <time>2009-04-19T14:53:56Z</time>
      </trkpt>
      <trkpt lat="46.95397" lon="5.90668">
        <ele>624</ele>
        <time>2009-04-19T14:54:00Z</time>
      </trkpt>
      <trkpt lat="46.95413" lon="5.90688">
        <ele>621</ele>
        <time>2009-04-19T14:54:19Z</time>
      </trkpt>
      <trkpt lat="46.95437" lon="5.90723">
        <ele>618</ele>
        <time>2009-04-19T14:54:43Z</time>
      </trkpt>
      <trkpt lat="46.95457" lon="5.90749">
        <ele>615</ele>
        <time>2009-04-19T14:55:04Z</time>
      </trkpt>
      <trkpt lat="46.95467" lon="5.90764">
        <ele>612</ele>
        <time>2009-04-19T14:55:18Z</time>
      </trkpt>
      <trkpt lat="46.95475" lon="5.90766">
        <ele>609</ele>
        <time>2009-04-19T14:55:26Z</time>
      </trkpt>
      <trkpt lat="46.95492" lon="5.90767">
        <ele>605</ele>
        <time>2009-04-19T14:55:38Z</time>
      </trkpt>
      <trkpt lat="46.95501" lon="5.90758">
        <ele>602</ele>
        <time>2009-04-19T14:55:51Z</time>
      </trkpt>
      <trkpt lat="46.95505" lon="5.90757">
        <ele>601</ele>
        <time>2009-04-19T14:55:53Z</time>
      </trkpt>
      <trkpt lat="46.95511" lon="5.90732">
        <ele>598</ele>
        <time>2009-04-19T14:56:10Z</time>
      </trkpt>
      <trkpt lat="46.95519" lon="5.9069">
        <ele>595</ele>
        <time>2009-04-19T14:56:31Z</time>
      </trkpt>
      <trkpt lat="46.95515" lon="5.90667">
        <ele>592</ele>
        <time>2009-04-19T14:56:45Z</time>
      </trkpt>
      <trkpt lat="46.95511" lon="5.90664">
        <ele>591</ele>
        <time>2009-04-19T14:57:04Z</time>
      </trkpt>
      <trkpt lat="46.95511" lon="5.90663">
        <ele>589</ele>
        <time>2009-04-19T14:57:13Z</time>
      </trkpt>
      <trkpt lat="46.95512" lon="5.9066">
        <ele>586</ele>
        <time>2009-04-19T14:57:27Z</time>
      </trkpt>
      <trkpt lat="46.95521" lon="5.90642">
        <ele>582</ele>
        <time>2009-04-19T14:57:40Z</time>
      </trkpt>
      <trkpt lat="46.95516" lon="5.90626">
        <ele>582</ele>
        <time>2009-04-19T14:58:07Z</time>
      </trkpt>
      <trkpt lat="46.95534" lon="5.90603">
        <ele>578</ele>
        <time>2009-04-19T14:58:23Z</time>
      </trkpt>
      <trkpt lat="46.95547" lon="5.90582">
        <ele>575</ele>
        <time>2009-04-19T14:58:41Z</time>
      </trkpt>
      <trkpt lat="46.9557" lon="5.90574">
        <ele>573</ele>
        <time>2009-04-19T14:59:02Z</time>
      </trkpt>
      <trkpt lat="46.95587" lon="5.90577">
        <ele>572</ele>
        <time>2009-04-19T14:59:24Z</time>
      </trkpt>
      <trkpt lat="46.9561" lon="5.90558">
        <ele>572</ele>
        <time>2009-04-19T14:59:45Z</time>
      </trkpt>
      <trkpt lat="46.9561" lon="5.90556">
        <ele>571</ele>
        <time>2009-04-19T14:59:47Z</time>
      </trkpt>
      <trkpt lat="46.95615" lon="5.90536">
        <ele>568</ele>
        <time>2009-04-19T15:00:03Z</time>
      </trkpt>
      <trkpt lat="46.95614" lon="5.90533">
        <ele>566</ele>
        <time>2009-04-19T15:00:06Z</time>
      </trkpt>
      <trkpt lat="46.95619" lon="5.90517">
        <ele>563</ele>
        <time>2009-04-19T15:00:18Z</time>
      </trkpt>
      <trkpt lat="46.95632" lon="5.90514">
        <ele>560</ele>
        <time>2009-04-19T15:00:32Z</time>
      </trkpt>
      <trkpt lat="46.95633" lon="5.90513">
        <ele>560</ele>
        <time>2009-04-19T15:00:33Z</time>
      </trkpt>
      <trkpt lat="46.95644" lon="5.90519">
        <ele>556</ele>
        <time>2009-04-19T15:00:44Z</time>
      </trkpt>
      <trkpt lat="46.95651" lon="5.90523">
        <ele>554</ele>
        <time>2009-04-19T15:00:53Z</time>
      </trkpt>
      <trkpt lat="46.95663" lon="5.90527">
        <ele>550</ele>
        <time>2009-04-19T15:01:06Z</time>
      </trkpt>
      <trkpt lat="46.95677" lon="5.90528">
        <ele>548</ele>
        <time>2009-04-19T15:01:20Z</time>
      </trkpt>
      <trkpt lat="46.95691" lon="5.90529">
        <ele>544</ele>
        <time>2009-04-19T15:01:33Z</time>
      </trkpt>
      <trkpt lat="46.95704" lon="5.90526">
        <ele>541</ele>
        <time>2009-04-19T15:01:48Z</time>
      </trkpt>
      <trkpt lat="46.95712" lon="5.90514">
        <ele>539</ele>
        <time>2009-04-19T15:01:58Z</time>
      </trkpt>
      <trkpt lat="46.9573" lon="5.90498">
        <ele>535</ele>
        <time>2009-04-19T15:02:14Z</time>
      </trkpt>
      <trkpt lat="46.95737" lon="5.90493">
        <ele>535</ele>
        <time>2009-04-19T15:02:20Z</time>
      </trkpt>
      <trkpt lat="46.95748" lon="5.90488">
        <ele>534</ele>
        <time>2009-04-19T15:02:28Z</time>
      </trkpt>
      <trkpt lat="46.95763" lon="5.90496">
        <ele>534</ele>
        <time>2009-04-19T15:02:42Z</time>
      </trkpt>
      <trkpt lat="46.95764" lon="5.90496">
        <ele>533</ele>
        <time>2009-04-19T15:03:13Z</time>
      </trkpt>
      <trkpt lat="46.95772" lon="5.90493">
        <ele>531</ele>
        <time>2009-04-19T15:06:42Z</time>
      </trkpt>
      <trkpt lat="46.95788" lon="5.90487">
        <ele>530</ele>
        <time>2009-04-19T15:06:56Z</time>
      </trkpt>
      <trkpt lat="46.95793" lon="5.90483">
        <ele>530</ele>
        <time>2009-04-19T15:07:00Z</time>
      </trkpt>
      <trkpt lat="46.9581" lon="5.90474">
        <ele>528</ele>
        <time>2009-04-19T15:07:16Z</time>
      </trkpt>
      <trkpt lat="46.95826" lon="5.90469">
        <ele>527</ele>
        <time>2009-04-19T15:07:28Z</time>
      </trkpt>
      <trkpt lat="46.95846" lon="5.90463">
        <ele>526</ele>
        <time>2009-04-19T15:07:40Z</time>
      </trkpt>
      <trkpt lat="46.9586" lon="5.90456">
        <ele>524</ele>
        <time>2009-04-19T15:07:52Z</time>
      </trkpt>
      <trkpt lat="46.95873" lon="5.90447">
        <ele>522</ele>
        <time>2009-04-19T15:08:06Z</time>
      </trkpt>
      <trkpt lat="46.95891" lon="5.90437">
        <ele>521</ele>
        <time>2009-04-19T15:08:19Z</time>
      </trkpt>
      <trkpt lat="46.95894" lon="5.90435">
        <ele>520</ele>
        <time>2009-04-19T15:08:22Z</time>
      </trkpt>
      <trkpt lat="46.95897" lon="5.90432">
        <ele>520</ele>
        <time>2009-04-19T15:08:25Z</time>
      </trkpt>
      <trkpt lat="46.95911" lon="5.90421">
        <ele>519</ele>
        <time>2009-04-19T15:08:38Z</time>
      </trkpt>
      <trkpt lat="46.95922" lon="5.90413">
        <ele>518</ele>
        <time>2009-04-19T15:08:47Z</time>
      </trkpt>
      <trkpt lat="46.95944" lon="5.90391">
        <ele>517</ele>
        <time>2009-04-19T15:09:06Z</time>
      </trkpt>
      <trkpt lat="46.95956" lon="5.90379">
        <ele>516</ele>
        <time>2009-04-19T15:09:22Z</time>
      </trkpt>
      <trkpt lat="46.95961" lon="5.90377">
        <ele>517</ele>
        <time>2009-04-19T15:09:29Z</time>
      </trkpt>
      <trkpt lat="46.95982" lon="5.90377">
        <ele>516</ele>
        <time>2009-04-19T15:09:44Z</time>
      </trkpt>
      <trkpt lat="46.95986" lon="5.90378">
        <ele>516</ele>
        <time>2009-04-19T15:09:47Z</time>
      </trkpt>
      <trkpt lat="46.95994" lon="5.90382">
        <ele>516</ele>
        <time>2009-04-19T15:09:55Z</time>
      </trkpt>
      <trkpt lat="46.96023" lon="5.90393">
        <ele>516</ele>
        <time>2009-04-19T15:10:18Z</time>
      </trkpt>
      <trkpt lat="46.96025" lon="5.90392">
        <ele>515</ele>
        <time>2009-04-19T15:10:20Z</time>
      </trkpt>
      <trkpt lat="46.96043" lon="5.90398">
        <ele>514</ele>
        <time>2009-04-19T15:10:34Z</time>
      </trkpt>
      <trkpt lat="46.96065" lon="5.90401">
        <ele>513</ele>
        <time>2009-04-19T15:10:48Z</time>
      </trkpt>
      <trkpt lat="46.96078" lon="5.904">
        <ele>512</ele>
        <time>2009-04-19T15:11:02Z</time>
      </trkpt>
      <trkpt lat="46.96083" lon="5.90394">
        <ele>512</ele>
        <time>2009-04-19T15:11:07Z</time>
      </trkpt>
      <trkpt lat="46.96094" lon="5.90389">
        <ele>512</ele>
        <time>2009-04-19T15:11:11Z</time>
      </trkpt>
      <trkpt lat="46.96097" lon="5.90372">
        <ele>511</ele>
        <time>2009-04-19T15:11:20Z</time>
      </trkpt>
      <trkpt lat="46.96096" lon="5.90343">
        <ele>511</ele>
        <time>2009-04-19T15:11:36Z</time>
      </trkpt>
      <trkpt lat="46.96099" lon="5.90321">
        <ele>511</ele>
        <time>2009-04-19T15:11:48Z</time>
      </trkpt>
      <trkpt lat="46.961" lon="5.90319">
        <ele>510</ele>
        <time>2009-04-19T15:11:49Z</time>
      </trkpt>
      <trkpt lat="46.96101" lon="5.90312">
        <ele>510</ele>
        <time>2009-04-19T15:11:53Z</time>
      </trkpt>
      <trkpt lat="46.96103" lon="5.90292">
        <ele>509</ele>
        <time>2009-04-19T15:12:03Z</time>
      </trkpt>
      <trkpt lat="46.96107" lon="5.90282">
        <ele>509</ele>
        <time>2009-04-19T15:12:11Z</time>
      </trkpt>
      <trkpt lat="46.96108" lon="5.90273">
        <ele>509</ele>
        <time>2009-04-19T15:12:16Z</time>
      </trkpt>
      <trkpt lat="46.96109" lon="5.90265">
        <ele>508</ele>
        <time>2009-04-19T15:12:20Z</time>
      </trkpt>
      <trkpt lat="46.96117" lon="5.90247">
        <ele>509</ele>
        <time>2009-04-19T15:12:31Z</time>
      </trkpt>
      <trkpt lat="46.9612" lon="5.90237">
        <ele>508</ele>
        <time>2009-04-19T15:12:35Z</time>
      </trkpt>
      <trkpt lat="46.96121" lon="5.90233">
        <ele>508</ele>
        <time>2009-04-19T15:12:38Z</time>
      </trkpt>
      <trkpt lat="46.96133" lon="5.90221">
        <ele>508</ele>
        <time>2009-04-19T15:12:54Z</time>
      </trkpt>
      <trkpt lat="46.96135" lon="5.90213">
        <ele>508</ele>
        <time>2009-04-19T15:15:00Z</time>
      </trkpt>
      <trkpt lat="46.96136" lon="5.90205">
        <ele>508</ele>
        <time>2009-04-19T15:15:40Z</time>
      </trkpt>
      <trkpt lat="46.96137" lon="5.9019">
        <ele>507</ele>
        <time>2009-04-19T15:15:50Z</time>
      </trkpt>
      <trkpt lat="46.96135" lon="5.90169">
        <ele>505</ele>
        <time>2009-04-19T15:16:04Z</time>
      </trkpt>
      <trkpt lat="46.96128" lon="5.90146">
        <ele>505</ele>
        <time>2009-04-19T15:16:18Z</time>
      </trkpt>
      <trkpt lat="46.96121" lon="5.90128">
        <ele>505</ele>
        <time>2009-04-19T15:16:32Z</time>
      </trkpt>
      <trkpt lat="46.96113" lon="5.90108">
        <ele>501</ele>
        <time>2009-04-19T15:16:43Z</time>
      </trkpt>
      <trkpt lat="46.96107" lon="5.90087">
        <ele>502</ele>
        <time>2009-04-19T15:16:57Z</time>
      </trkpt>
      <trkpt lat="46.96096" lon="5.90045">
        <ele>500</ele>
        <time>2009-04-19T15:17:21Z</time>
      </trkpt>
      <trkpt lat="46.9609" lon="5.90029">
        <ele>499</ele>
        <time>2009-04-19T15:17:31Z</time>
      </trkpt>
      <trkpt lat="46.96089" lon="5.90002">
        <ele>498</ele>
        <time>2009-04-19T15:17:47Z</time>
      </trkpt>
      <trkpt lat="46.96076" lon="5.89976">
        <ele>496</ele>
        <time>2009-04-19T15:18:01Z</time>
      </trkpt>
      <trkpt lat="46.96073" lon="5.89966">
        <ele>496</ele>
        <time>2009-04-19T15:18:07Z</time>
      </trkpt>
      <trkpt lat="46.96069" lon="5.89944">
        <ele>494</ele>
        <time>2009-04-19T15:18:20Z</time>
      </trkpt>
      <trkpt lat="46.96055" lon="5.89916">
        <ele>492</ele>
        <time>2009-04-19T15:18:35Z</time>
      </trkpt>
      <trkpt lat="46.96045" lon="5.89893">
        <ele>491</ele>
        <time>2009-04-19T15:18:54Z</time>
      </trkpt>
      <trkpt lat="46.96032" lon="5.89869">
        <ele>489</ele>
        <time>2009-04-19T15:19:14Z</time>
      </trkpt>
      <trkpt lat="46.96023" lon="5.8984">
        <ele>486</ele>
        <time>2009-04-19T15:19:33Z</time>
      </trkpt>
      <trkpt lat="46.96014" lon="5.89825">
        <ele>485</ele>
        <time>2009-04-19T15:19:49Z</time>
      </trkpt>
      <trkpt lat="46.96003" lon="5.89806">
        <ele>483</ele>
        <time>2009-04-19T15:19:58Z</time>
      </trkpt>
      <trkpt lat="46.95992" lon="5.89789">
        <ele>482</ele>
        <time>2009-04-19T15:20:13Z</time>
      </trkpt>
      <trkpt lat="46.95986" lon="5.89774">
        <ele>480</ele>
        <time>2009-04-19T15:20:27Z</time>
      </trkpt>
      <trkpt lat="46.95974" lon="5.89752">
        <ele>477</ele>
        <time>2009-04-19T15:20:45Z</time>
      </trkpt>
      <trkpt lat="46.95964" lon="5.89733">
        <ele>476</ele>
        <time>2009-04-19T15:20:57Z</time>
      </trkpt>
      <trkpt lat="46.95957" lon="5.89718">
        <ele>474</ele>
        <time>2009-04-19T15:21:09Z</time>
      </trkpt>
      <trkpt lat="46.95932" lon="5.89689">
        <ele>471</ele>
        <time>2009-04-19T15:21:27Z</time>
      </trkpt>
      <trkpt lat="46.95914" lon="5.89667">
        <ele>468</ele>
        <time>2009-04-19T15:21:42Z</time>
      </trkpt>
      <trkpt lat="46.95899" lon="5.89646">
        <ele>468</ele>
        <time>2009-04-19T15:21:57Z</time>
      </trkpt>
      <trkpt lat="46.95896" lon="5.89641">
        <ele>467</ele>
        <time>2009-04-19T15:22:01Z</time>
      </trkpt>
      <trkpt lat="46.95884" lon="5.8963">
        <ele>465</ele>
        <time>2009-04-19T15:22:13Z</time>
      </trkpt>
      <trkpt lat="46.95865" lon="5.89612">
        <ele>464</ele>
        <time>2009-04-19T15:22:31Z</time>
      </trkpt>
      <trkpt lat="46.9586" lon="5.89605">
        <ele>463</ele>
        <time>2009-04-19T15:22:35Z</time>
      </trkpt>
      <trkpt lat="46.95849" lon="5.89594">
        <ele>464</ele>
        <time>2009-04-19T15:22:45Z</time>
      </trkpt>
      <trkpt lat="46.95838" lon="5.89581">
        <ele>463</ele>
        <time>2009-04-19T15:22:58Z</time>
      </trkpt>
      <trkpt lat="46.95835" lon="5.89579">
        <ele>463</ele>
        <time>2009-04-19T15:23:00Z</time>
      </trkpt>
      <trkpt lat="46.95823" lon="5.89565">
        <ele>461</ele>
        <time>2009-04-19T15:23:13Z</time>
      </trkpt>
      <trkpt lat="46.95808" lon="5.89549">
        <ele>459</ele>
        <time>2009-04-19T15:23:28Z</time>
      </trkpt>
      <trkpt lat="46.95799" lon="5.89542">
        <ele>457</ele>
        <time>2009-04-19T15:23:39Z</time>
      </trkpt>
      <trkpt lat="46.95786" lon="5.89531">
        <ele>456</ele>
        <time>2009-04-19T15:23:49Z</time>
      </trkpt>
      <trkpt lat="46.95776" lon="5.89524">
        <ele>455</ele>
        <time>2009-04-19T15:23:57Z</time>
      </trkpt>
      <trkpt lat="46.95764" lon="5.89512">
        <ele>454</ele>
        <time>2009-04-19T15:24:09Z</time>
      </trkpt>
      <trkpt lat="46.95752" lon="5.895">
        <ele>451</ele>
        <time>2009-04-19T15:24:21Z</time>
      </trkpt>
      <trkpt lat="46.9574" lon="5.89488">
        <ele>450</ele>
        <time>2009-04-19T15:24:33Z</time>
      </trkpt>
      <trkpt lat="46.95736" lon="5.89485">
        <ele>450</ele>
        <time>2009-04-19T15:24:36Z</time>
      </trkpt>
      <trkpt lat="46.95732" lon="5.89482">
        <ele>449</ele>
        <time>2009-04-19T15:24:40Z</time>
      </trkpt>
      <trkpt lat="46.95723" lon="5.89474">
        <ele>446</ele>
        <time>2009-04-19T15:24:49Z</time>
      </trkpt>
      <trkpt lat="46.95713" lon="5.89464">
        <ele>444</ele>
        <time>2009-04-19T15:25:00Z</time>
      </trkpt>
      <trkpt lat="46.95701" lon="5.89443">
        <ele>441</ele>
        <time>2009-04-19T15:25:16Z</time>
      </trkpt>
      <trkpt lat="46.95693" lon="5.89433">
        <ele>438</ele>
        <time>2009-04-19T15:25:26Z</time>
      </trkpt>
      <trkpt lat="46.95681" lon="5.8942">
        <ele>436</ele>
        <time>2009-04-19T15:25:41Z</time>
      </trkpt>
      <trkpt lat="46.95678" lon="5.89415">
        <ele>435</ele>
        <time>2009-04-19T15:25:45Z</time>
      </trkpt>
      <trkpt lat="46.95668" lon="5.894">
        <ele>433</ele>
        <time>2009-04-19T15:25:58Z</time>
      </trkpt>
      <trkpt lat="46.95662" lon="5.89395">
        <ele>431</ele>
        <time>2009-04-19T15:26:22Z</time>
      </trkpt>
      <trkpt lat="46.95663" lon="5.894">
        <ele>431</ele>
        <time>2009-04-19T15:26:55Z</time>
      </trkpt>
      <trkpt lat="46.95656" lon="5.89391">
        <ele>431</ele>
        <time>2009-04-19T15:28:36Z</time>
      </trkpt>
      <trkpt lat="46.95641" lon="5.89368">
        <ele>430</ele>
        <time>2009-04-19T15:28:57Z</time>
      </trkpt>
      <trkpt lat="46.95626" lon="5.89339">
        <ele>430</ele>
        <time>2009-04-19T15:29:20Z</time>
      </trkpt>
      <trkpt lat="46.95626" lon="5.89334">
        <ele>430</ele>
        <time>2009-04-19T15:29:22Z</time>
      </trkpt>
      <trkpt lat="46.95627" lon="5.89332">
        <ele>428</ele>
        <time>2009-04-19T15:29:39Z</time>
      </trkpt>
      <trkpt lat="46.95627" lon="5.89346">
        <ele>428</ele>
        <time>2009-04-19T15:29:45Z</time>
      </trkpt>
      <trkpt lat="46.95626" lon="5.89369">
        <ele>427</ele>
        <time>2009-04-19T15:30:01Z</time>
      </trkpt>
      <trkpt lat="46.95626" lon="5.89401">
        <ele>427</ele>
        <time>2009-04-19T15:30:18Z</time>
      </trkpt>
      <trkpt lat="46.95624" lon="5.89424">
        <ele>428</ele>
        <time>2009-04-19T15:30:31Z</time>
      </trkpt>
      <trkpt lat="46.95619" lon="5.89451">
        <ele>430</ele>
        <time>2009-04-19T15:30:46Z</time>
      </trkpt>
      <trkpt lat="46.95616" lon="5.8946">
        <ele>430</ele>
        <time>2009-04-19T15:30:50Z</time>
      </trkpt>
      <trkpt lat="46.95614" lon="5.89479">
        <ele>432</ele>
        <time>2009-04-19T15:31:05Z</time>
      </trkpt>
      <trkpt lat="46.95614" lon="5.89481">
        <ele>432</ele>
        <time>2009-04-19T15:31:06Z</time>
      </trkpt>
      <trkpt lat="46.9561" lon="5.89491">
        <ele>432</ele>
        <time>2009-04-19T15:31:12Z</time>
      </trkpt>
      <trkpt lat="46.956" lon="5.89499">
        <ele>436</ele>
        <time>2009-04-19T15:31:22Z</time>
      </trkpt>
      <trkpt lat="46.95588" lon="5.89501">
        <ele>436</ele>
        <time>2009-04-19T15:31:30Z</time>
      </trkpt>
      <trkpt lat="46.9557" lon="5.89492">
        <ele>437</ele>
        <time>2009-04-19T15:31:43Z</time>
      </trkpt>
      <trkpt lat="46.95567" lon="5.89492">
        <ele>437</ele>
        <time>2009-04-19T15:31:45Z</time>
      </trkpt>
      <trkpt lat="46.95554" lon="5.89489">
        <ele>437</ele>
        <time>2009-04-19T15:31:57Z</time>
      </trkpt>
      <trkpt lat="46.95551" lon="5.89488">
        <ele>437</ele>
        <time>2009-04-19T15:31:59Z</time>
      </trkpt>
      <trkpt lat="46.95536" lon="5.89485">
        <ele>437</ele>
        <time>2009-04-19T15:32:13Z</time>
      </trkpt>
      <trkpt lat="46.95524" lon="5.89476">
        <ele>437</ele>
        <time>2009-04-19T15:32:25Z</time>
      </trkpt>
      <trkpt lat="46.95518" lon="5.89464">
        <ele>436</ele>
        <time>2009-04-19T15:32:38Z</time>
      </trkpt>
      <trkpt lat="46.95507" lon="5.89455">
        <ele>438</ele>
        <time>2009-04-19T15:33:00Z</time>
      </trkpt>
      <trkpt lat="46.95496" lon="5.89438">
        <ele>439</ele>
        <time>2009-04-19T15:33:13Z</time>
      </trkpt>
      <trkpt lat="46.95488" lon="5.89427">
        <ele>439</ele>
        <time>2009-04-19T15:33:26Z</time>
      </trkpt>
      <trkpt lat="46.95486" lon="5.89422">
        <ele>442</ele>
        <time>2009-04-19T15:33:31Z</time>
      </trkpt>
      <trkpt lat="46.95483" lon="5.89419">
        <ele>442</ele>
        <time>2009-04-19T15:33:35Z</time>
      </trkpt>
      <trkpt lat="46.95469" lon="5.89402">
        <ele>445</ele>
        <time>2009-04-19T15:33:50Z</time>
      </trkpt>
      <trkpt lat="46.95468" lon="5.89401">
        <ele>445</ele>
        <time>2009-04-19T15:33:51Z</time>
      </trkpt>
      <trkpt lat="46.95465" lon="5.89397">
        <ele>446</ele>
        <time>2009-04-19T15:33:54Z</time>
      </trkpt>
      <trkpt lat="46.95455" lon="5.89386">
        <ele>447</ele>
        <time>2009-04-19T15:34:06Z</time>
      </trkpt>
      <trkpt lat="46.9545" lon="5.89382">
        <ele>447</ele>
        <time>2009-04-19T15:34:12Z</time>
      </trkpt>
      <trkpt lat="46.95447" lon="5.8938">
        <ele>449</ele>
        <time>2009-04-19T15:34:15Z</time>
      </trkpt>
      <trkpt lat="46.95442" lon="5.89375">
        <ele>451</ele>
        <time>2009-04-19T15:34:24Z</time>
      </trkpt>
      <trkpt lat="46.95436" lon="5.8937">
        <ele>452</ele>
        <time>2009-04-19T15:34:32Z</time>
      </trkpt>
      <trkpt lat="46.95428" lon="5.89359">
        <ele>455</ele>
        <time>2009-04-19T15:34:43Z</time>
      </trkpt>
      <trkpt lat="46.95425" lon="5.89357">
        <ele>456</ele>
        <time>2009-04-19T15:34:47Z</time>
      </trkpt>
      <trkpt lat="46.95417" lon="5.89348">
        <ele>458</ele>
        <time>2009-04-19T15:35:00Z</time>
      </trkpt>
      <trkpt lat="46.95407" lon="5.89337">
        <ele>460</ele>
        <time>2009-04-19T15:35:14Z</time>
      </trkpt>
      <trkpt lat="46.95401" lon="5.89331">
        <ele>461</ele>
        <time>2009-04-19T15:35:21Z</time>
      </trkpt>
      <trkpt lat="46.954" lon="5.89328">
        <ele>462</ele>
        <time>2009-04-19T15:35:23Z</time>
      </trkpt>
      <trkpt lat="46.95397" lon="5.89322">
        <ele>462</ele>
        <time>2009-04-19T15:35:27Z</time>
      </trkpt>
      <trkpt lat="46.95391" lon="5.89318">
        <ele>464</ele>
        <time>2009-04-19T15:35:34Z</time>
      </trkpt>
      <trkpt lat="46.95389" lon="5.89316">
        <ele>463</ele>
        <time>2009-04-19T15:35:36Z</time>
      </trkpt>
      <trkpt lat="46.95388" lon="5.89316">
        <ele>464</ele>
        <time>2009-04-19T15:35:37Z</time>
      </trkpt>
      <trkpt lat="46.95384" lon="5.89311">
        <ele>464</ele>
        <time>2009-04-19T15:35:41Z</time>
      </trkpt>
      <trkpt lat="46.9538" lon="5.89308">
        <ele>466</ele>
        <time>2009-04-19T15:35:44Z</time>
      </trkpt>
      <trkpt lat="46.95374" lon="5.89301">
        <ele>467</ele>
        <time>2009-04-19T15:35:51Z</time>
      </trkpt>
      <trkpt lat="46.95361" lon="5.89288">
        <ele>469</ele>
        <time>2009-04-19T15:36:04Z</time>
      </trkpt>
      <trkpt lat="46.95358" lon="5.89284">
        <ele>471</ele>
        <time>2009-04-19T15:36:08Z</time>
      </trkpt>
      <trkpt lat="46.95351" lon="5.89279">
        <ele>470</ele>
        <time>2009-04-19T15:36:14Z</time>
      </trkpt>
      <trkpt lat="46.95343" lon="5.89272">
        <ele>472</ele>
        <time>2009-04-19T15:36:24Z</time>
      </trkpt>
      <trkpt lat="46.95333" lon="5.89264">
        <ele>473</ele>
        <time>2009-04-19T15:36:33Z</time>
      </trkpt>
      <trkpt lat="46.95323" lon="5.89246">
        <ele>476</ele>
        <time>2009-04-19T15:36:51Z</time>
      </trkpt>
      <trkpt lat="46.95315" lon="5.89237">
        <ele>478</ele>
        <time>2009-04-19T15:37:02Z</time>
      </trkpt>
      <trkpt lat="46.95312" lon="5.89234">
        <ele>476</ele>
        <time>2009-04-19T15:37:05Z</time>
      </trkpt>
      <trkpt lat="46.95306" lon="5.89229">
        <ele>479</ele>
        <time>2009-04-19T15:37:09Z</time>
      </trkpt>
      <trkpt lat="46.95289" lon="5.8922">
        <ele>479</ele>
        <time>2009-04-19T15:37:22Z</time>
      </trkpt>
      <trkpt lat="46.95287" lon="5.89217">
        <ele>478</ele>
        <time>2009-04-19T15:37:36Z</time>
      </trkpt>
      <trkpt lat="46.95286" lon="5.89216">
        <ele>478</ele>
        <time>2009-04-19T15:38:13Z</time>
      </trkpt>
      <trkpt lat="46.95267" lon="5.89214">
        <ele>478</ele>
        <time>2009-04-19T15:44:53Z</time>
      </trkpt>
      <trkpt lat="46.95255" lon="5.89211">
        <ele>477</ele>
        <time>2009-04-19T15:45:08Z</time>
      </trkpt>
      <trkpt lat="46.95236" lon="5.89208">
        <ele>476</ele>
        <time>2009-04-19T15:45:22Z</time>
      </trkpt>
      <trkpt lat="46.95222" lon="5.89206">
        <ele>475</ele>
        <time>2009-04-19T15:45:34Z</time>
      </trkpt>
      <trkpt lat="46.95209" lon="5.89196">
        <ele>474</ele>
        <time>2009-04-19T15:45:47Z</time>
      </trkpt>
      <trkpt lat="46.95191" lon="5.89178">
        <ele>474</ele>
        <time>2009-04-19T15:46:02Z</time>
      </trkpt>
      <trkpt lat="46.95183" lon="5.89167">
        <ele>473</ele>
        <time>2009-04-19T15:46:13Z</time>
      </trkpt>
      <trkpt lat="46.95175" lon="5.89153">
        <ele>474</ele>
        <time>2009-04-19T15:46:20Z</time>
      </trkpt>
      <trkpt lat="46.95169" lon="5.8914">
        <ele>473</ele>
        <time>2009-04-19T15:46:28Z</time>
      </trkpt>
      <trkpt lat="46.95167" lon="5.89124">
        <ele>474</ele>
        <time>2009-04-19T15:46:40Z</time>
      </trkpt>
      <trkpt lat="46.95157" lon="5.89112">
        <ele>474</ele>
        <time>2009-04-19T15:46:55Z</time>
      </trkpt>
      <trkpt lat="46.95155" lon="5.89109">
        <ele>474</ele>
        <time>2009-04-19T15:46:59Z</time>
      </trkpt>
      <trkpt lat="46.95147" lon="5.89095">
        <ele>474</ele>
        <time>2009-04-19T15:47:14Z</time>
      </trkpt>
      <trkpt lat="46.95146" lon="5.89093">
        <ele>474</ele>
        <time>2009-04-19T15:47:16Z</time>
      </trkpt>
      <trkpt lat="46.95144" lon="5.89091">
        <ele>474</ele>
        <time>2009-04-19T15:47:19Z</time>
      </trkpt>
      <trkpt lat="46.95139" lon="5.89081">
        <ele>474</ele>
        <time>2009-04-19T15:47:25Z</time>
      </trkpt>
      <trkpt lat="46.95131" lon="5.89073">
        <ele>474</ele>
        <time>2009-04-19T15:47:34Z</time>
      </trkpt>
      <trkpt lat="46.95124" lon="5.89061">
        <ele>473</ele>
        <time>2009-04-19T15:47:40Z</time>
      </trkpt>
      <trkpt lat="46.95106" lon="5.89036">
        <ele>472</ele>
        <time>2009-04-19T15:47:55Z</time>
      </trkpt>
      <trkpt lat="46.95097" lon="5.89033">
        <ele>471</ele>
        <time>2009-04-19T15:48:03Z</time>
      </trkpt>
      <trkpt lat="46.95093" lon="5.89031">
        <ele>471</ele>
        <time>2009-04-19T15:48:06Z</time>
      </trkpt>
      <trkpt lat="46.95087" lon="5.89028">
        <ele>472</ele>
        <time>2009-04-19T15:48:12Z</time>
      </trkpt>
      <trkpt lat="46.9507" lon="5.8901">
        <ele>469</ele>
        <time>2009-04-19T15:48:26Z</time>
      </trkpt>
      <trkpt lat="46.95057" lon="5.88998">
        <ele>468</ele>
        <time>2009-04-19T15:48:38Z</time>
      </trkpt>
      <trkpt lat="46.95057" lon="5.89003">
        <ele>467</ele>
        <time>2009-04-19T15:48:42Z</time>
      </trkpt>
      <trkpt lat="46.95057" lon="5.89002">
        <ele>468</ele>
        <time>2009-04-19T15:48:46Z</time>
      </trkpt>
      <trkpt lat="46.95056" lon="5.88997">
        <ele>467</ele>
        <time>2009-04-19T15:48:49Z</time>
      </trkpt>
      <trkpt lat="46.9505" lon="5.88987">
        <ele>468</ele>
        <time>2009-04-19T15:48:56Z</time>
      </trkpt>
      <trkpt lat="46.95038" lon="5.88974">
        <ele>468</ele>
        <time>2009-04-19T15:49:10Z</time>
      </trkpt>
      <trkpt lat="46.95026" lon="5.88962">
        <ele>470</ele>
        <time>2009-04-19T15:49:25Z</time>
      </trkpt>
      <trkpt lat="46.95015" lon="5.88946">
        <ele>472</ele>
        <time>2009-04-19T15:49:38Z</time>
      </trkpt>
      <trkpt lat="46.95012" lon="5.88937">
        <ele>472</ele>
        <time>2009-04-19T15:49:42Z</time>
      </trkpt>
      <trkpt lat="46.9501" lon="5.88932">
        <ele>472</ele>
        <time>2009-04-19T15:49:44Z</time>
      </trkpt>
      <trkpt lat="46.95006" lon="5.88928">
        <ele>472</ele>
        <time>2009-04-19T15:49:48Z</time>
      </trkpt>
      <trkpt lat="46.95005" lon="5.88926">
        <ele>471</ele>
        <time>2009-04-19T15:49:50Z</time>
      </trkpt>
      <trkpt lat="46.95002" lon="5.88926">
        <ele>470</ele>
        <time>2009-04-19T15:49:53Z</time>
      </trkpt>
      <trkpt lat="46.94996" lon="5.88921">
        <ele>468</ele>
        <time>2009-04-19T15:50:03Z</time>
      </trkpt>
      <trkpt lat="46.94982" lon="5.88915">
        <ele>466</ele>
        <time>2009-04-19T15:50:15Z</time>
      </trkpt>
      <trkpt lat="46.94973" lon="5.88906">
        <ele>465</ele>
        <time>2009-04-19T15:50:22Z</time>
      </trkpt>
      <trkpt lat="46.94965" lon="5.88899">
        <ele>463</ele>
        <time>2009-04-19T15:50:32Z</time>
      </trkpt>
      <trkpt lat="46.94955" lon="5.88887">
        <ele>461</ele>
        <time>2009-04-19T15:50:41Z</time>
      </trkpt>
      <trkpt lat="46.94951" lon="5.88881">
        <ele>459</ele>
        <time>2009-04-19T15:50:46Z</time>
      </trkpt>
      <trkpt lat="46.94938" lon="5.88864">
        <ele>457</ele>
        <time>2009-04-19T15:51:01Z</time>
      </trkpt>
      <trkpt lat="46.94928" lon="5.88848">
        <ele>456</ele>
        <time>2009-04-19T15:51:13Z</time>
      </trkpt>
      <trkpt lat="46.94923" lon="5.88834">
        <ele>455</ele>
        <time>2009-04-19T15:51:24Z</time>
      </trkpt>
      <trkpt lat="46.9492" lon="5.88829">
        <ele>455</ele>
        <time>2009-04-19T15:51:28Z</time>
      </trkpt>
      <trkpt lat="46.94917" lon="5.88821">
        <ele>453</ele>
        <time>2009-04-19T15:51:32Z</time>
      </trkpt>
      <trkpt lat="46.94915" lon="5.88816">
        <ele>452</ele>
        <time>2009-04-19T15:51:34Z</time>
      </trkpt>
      <trkpt lat="46.94908" lon="5.888">
        <ele>451</ele>
        <time>2009-04-19T15:51:45Z</time>
      </trkpt>
      <trkpt lat="46.94906" lon="5.888">
        <ele>450</ele>
        <time>2009-04-19T15:51:52Z</time>
      </trkpt>
      <trkpt lat="46.94905" lon="5.88793">
        <ele>450</ele>
        <time>2009-04-19T15:51:56Z</time>
      </trkpt>
      <trkpt lat="46.94898" lon="5.88771">
        <ele>448</ele>
        <time>2009-04-19T15:52:12Z</time>
      </trkpt>
      <trkpt lat="46.94899" lon="5.88769">
        <ele>448</ele>
        <time>2009-04-19T15:52:14Z</time>
      </trkpt>
      <trkpt lat="46.94891" lon="5.88747">
        <ele>447</ele>
        <time>2009-04-19T15:52:30Z</time>
      </trkpt>
      <trkpt lat="46.94889" lon="5.88739">
        <ele>446</ele>
        <time>2009-04-19T15:52:34Z</time>
      </trkpt>
      <trkpt lat="46.9488" lon="5.88717">
        <ele>447</ele>
        <time>2009-04-19T15:52:48Z</time>
      </trkpt>
      <trkpt lat="46.94877" lon="5.88715">
        <ele>446</ele>
        <time>2009-04-19T15:52:52Z</time>
      </trkpt>
      <trkpt lat="46.94863" lon="5.88695">
        <ele>444</ele>
        <time>2009-04-19T15:53:06Z</time>
      </trkpt>
      <trkpt lat="46.94856" lon="5.88689">
        <ele>444</ele>
        <time>2009-04-19T15:53:12Z</time>
      </trkpt>
      <trkpt lat="46.9485" lon="5.88682">
        <ele>444</ele>
        <time>2009-04-19T15:53:19Z</time>
      </trkpt>
      <trkpt lat="46.94842" lon="5.88679">
        <ele>442</ele>
        <time>2009-04-19T15:53:29Z</time>
      </trkpt>
      <trkpt lat="46.94833" lon="5.88678">
        <ele>442</ele>
        <time>2009-04-19T15:53:36Z</time>
      </trkpt>
      <trkpt lat="46.94828" lon="5.88678">
        <ele>444</ele>
        <time>2009-04-19T15:53:40Z</time>
      </trkpt>
      <trkpt lat="46.94826" lon="5.88675">
        <ele>443</ele>
        <time>2009-04-19T15:53:42Z</time>
      </trkpt>
      <trkpt lat="46.9482" lon="5.88668">
        <ele>442</ele>
        <time>2009-04-19T15:53:48Z</time>
      </trkpt>
      <trkpt lat="46.94815" lon="5.88665">
        <ele>442</ele>
        <time>2009-04-19T15:53:52Z</time>
      </trkpt>
      <trkpt lat="46.9481" lon="5.88666">
        <ele>440</ele>
        <time>2009-04-19T15:53:56Z</time>
      </trkpt>
      <trkpt lat="46.94804" lon="5.88665">
        <ele>440</ele>
        <time>2009-04-19T15:54:01Z</time>
      </trkpt>
      <trkpt lat="46.94786" lon="5.88651">
        <ele>438</ele>
        <time>2009-04-19T15:54:15Z</time>
      </trkpt>
      <trkpt lat="46.94783" lon="5.88649">
        <ele>438</ele>
        <time>2009-04-19T15:54:17Z</time>
      </trkpt>
      <trkpt lat="46.94772" lon="5.88636">
        <ele>436</ele>
        <time>2009-04-19T15:54:30Z</time>
      </trkpt>
      <trkpt lat="46.94769" lon="5.88631">
        <ele>435</ele>
        <time>2009-04-19T15:54:36Z</time>
      </trkpt>
      <trkpt lat="46.94767" lon="5.88624">
        <ele>434</ele>
        <time>2009-04-19T15:54:41Z</time>
      </trkpt>
      <trkpt lat="46.94765" lon="5.88621">
        <ele>434</ele>
        <time>2009-04-19T15:54:44Z</time>
      </trkpt>
      <trkpt lat="46.94763" lon="5.88618">
        <ele>433</ele>
        <time>2009-04-19T15:54:46Z</time>
      </trkpt>
      <trkpt lat="46.94757" lon="5.88611">
        <ele>432</ele>
        <time>2009-04-19T15:54:51Z</time>
      </trkpt>
      <trkpt lat="46.94746" lon="5.88591">
        <ele>431</ele>
        <time>2009-04-19T15:55:06Z</time>
      </trkpt>
      <trkpt lat="46.94741" lon="5.88583">
        <ele>430</ele>
        <time>2009-04-19T15:55:12Z</time>
      </trkpt>
      <trkpt lat="46.9473" lon="5.88567">
        <ele>428</ele>
        <time>2009-04-19T15:55:25Z</time>
      </trkpt>
      <trkpt lat="46.94725" lon="5.88561">
        <ele>428</ele>
        <time>2009-04-19T15:55:31Z</time>
      </trkpt>
      <trkpt lat="46.9471" lon="5.88551">
        <ele>425</ele>
        <time>2009-04-19T15:55:46Z</time>
      </trkpt>
      <trkpt lat="46.94699" lon="5.88547">
        <ele>423</ele>
        <time>2009-04-19T15:55:57Z</time>
      </trkpt>
      <trkpt lat="46.9469" lon="5.8854">
        <ele>421</ele>
        <time>2009-04-19T15:56:05Z</time>
      </trkpt>
      <trkpt lat="46.94686" lon="5.88537">
        <ele>421</ele>
        <time>2009-04-19T15:56:09Z</time>
      </trkpt>
      <trkpt lat="46.94678" lon="5.88533">
        <ele>420</ele>
        <time>2009-04-19T15:56:15Z</time>
      </trkpt>
      <trkpt lat="46.94669" lon="5.88525">
        <ele>418</ele>
        <time>2009-04-19T15:56:22Z</time>
      </trkpt>
      <trkpt lat="46.94667" lon="5.88521">
        <ele>418</ele>
        <time>2009-04-19T15:56:25Z</time>
      </trkpt>
      <trkpt lat="46.94658" lon="5.88511">
        <ele>417</ele>
        <time>2009-04-19T15:56:32Z</time>
      </trkpt>
      <trkpt lat="46.94655" lon="5.88507">
        <ele>417</ele>
        <time>2009-04-19T15:56:35Z</time>
      </trkpt>
      <trkpt lat="46.94641" lon="5.88488">
        <ele>415</ele>
        <time>2009-04-19T15:56:47Z</time>
      </trkpt>
      <trkpt lat="46.94632" lon="5.88472">
        <ele>413</ele>
        <time>2009-04-19T15:56:58Z</time>
      </trkpt>
      <trkpt lat="46.94623" lon="5.88465">
        <ele>412</ele>
        <time>2009-04-19T15:57:07Z</time>
      </trkpt>
      <trkpt lat="46.94615" lon="5.88449">
        <ele>411</ele>
        <time>2009-04-19T15:57:20Z</time>
      </trkpt>
      <trkpt lat="46.94612" lon="5.88445">
        <ele>411</ele>
        <time>2009-04-19T15:57:33Z</time>
      </trkpt>
      <trkpt lat="46.94604" lon="5.88442">
        <ele>410</ele>
        <time>2009-04-19T15:57:42Z</time>
      </trkpt>
      <trkpt lat="46.94603" lon="5.88441">
        <ele>410</ele>
        <time>2009-04-19T15:57:44Z</time>
      </trkpt>
      <trkpt lat="46.94601" lon="5.8844">
        <ele>410</ele>
        <time>2009-04-19T15:57:46Z</time>
      </trkpt>
      <trkpt lat="46.94597" lon="5.88438">
        <ele>409</ele>
        <time>2009-04-19T15:57:49Z</time>
      </trkpt>
      <trkpt lat="46.94585" lon="5.88441">
        <ele>408</ele>
        <time>2009-04-19T15:58:04Z</time>
      </trkpt>
      <trkpt lat="46.94573" lon="5.88436">
        <ele>406</ele>
        <time>2009-04-19T15:58:14Z</time>
      </trkpt>
      <trkpt lat="46.94567" lon="5.88422">
        <ele>406</ele>
        <time>2009-04-19T15:58:20Z</time>
      </trkpt>
      <trkpt lat="46.94551" lon="5.88394">
        <ele>404</ele>
        <time>2009-04-19T15:58:34Z</time>
      </trkpt>
      <trkpt lat="46.94546" lon="5.88371">
        <ele>403</ele>
        <time>2009-04-19T15:58:47Z</time>
      </trkpt>
      <trkpt lat="46.94535" lon="5.8835">
        <ele>403</ele>
        <time>2009-04-19T15:59:00Z</time>
      </trkpt>
      <trkpt lat="46.94528" lon="5.88333">
        <ele>401</ele>
        <time>2009-04-19T15:59:08Z</time>
      </trkpt>
      <trkpt lat="46.94523" lon="5.88327">
        <ele>401</ele>
        <time>2009-04-19T15:59:14Z</time>
      </trkpt>
      <trkpt lat="46.94514" lon="5.88324">
        <ele>401</ele>
        <time>2009-04-19T15:59:21Z</time>
      </trkpt>
      <trkpt lat="46.94502" lon="5.88316">
        <ele>401</ele>
        <time>2009-04-19T15:59:31Z</time>
      </trkpt>
      <trkpt lat="46.94493" lon="5.88313">
        <ele>400</ele>
        <time>2009-04-19T15:59:41Z</time>
      </trkpt>
      <trkpt lat="46.94487" lon="5.88312">
        <ele>400</ele>
        <time>2009-04-19T15:59:45Z</time>
      </trkpt>
      <trkpt lat="46.94485" lon="5.88313">
        <ele>400</ele>
        <time>2009-04-19T15:59:47Z</time>
      </trkpt>
      <trkpt lat="46.94474" lon="5.88305">
        <ele>400</ele>
        <time>2009-04-19T15:59:58Z</time>
      </trkpt>
      <trkpt lat="46.94466" lon="5.88304">
        <ele>399</ele>
        <time>2009-04-19T16:00:06Z</time>
      </trkpt>
      <trkpt lat="46.94459" lon="5.883">
        <ele>399</ele>
        <time>2009-04-19T16:00:10Z</time>
      </trkpt>
      <trkpt lat="46.94455" lon="5.88296">
        <ele>398</ele>
        <time>2009-04-19T16:00:13Z</time>
      </trkpt>
      <trkpt lat="46.94443" lon="5.88278">
        <ele>397</ele>
        <time>2009-04-19T16:00:25Z</time>
      </trkpt>
      <trkpt lat="46.94443" lon="5.88276">
        <ele>397</ele>
        <time>2009-04-19T16:00:27Z</time>
      </trkpt>
      <trkpt lat="46.94441" lon="5.88271">
        <ele>396</ele>
        <time>2009-04-19T16:00:30Z</time>
      </trkpt>
      <trkpt lat="46.94423" lon="5.88254">
        <ele>395</ele>
        <time>2009-04-19T16:00:43Z</time>
      </trkpt>
      <trkpt lat="46.94418" lon="5.8825">
        <ele>395</ele>
        <time>2009-04-19T16:00:48Z</time>
      </trkpt>
      <trkpt lat="46.94411" lon="5.88255">
        <ele>395</ele>
        <time>2009-04-19T16:00:52Z</time>
      </trkpt>
      <trkpt lat="46.94408" lon="5.88252">
        <ele>393</ele>
        <time>2009-04-19T16:00:55Z</time>
      </trkpt>
      <trkpt lat="46.94389" lon="5.88237">
        <ele>394</ele>
        <time>2009-04-19T16:01:12Z</time>
      </trkpt>
      <trkpt lat="46.9438" lon="5.88223">
        <ele>393</ele>
        <time>2009-04-19T16:01:23Z</time>
      </trkpt>
      <trkpt lat="46.94377" lon="5.88215">
        <ele>393</ele>
        <time>2009-04-19T16:01:27Z</time>
      </trkpt>
      <trkpt lat="46.94372" lon="5.88205">
        <ele>394</ele>
        <time>2009-04-19T16:01:32Z</time>
      </trkpt>
      <trkpt lat="46.94367" lon="5.88202">
        <ele>393</ele>
        <time>2009-04-19T16:01:38Z</time>
      </trkpt>
      <trkpt lat="46.94354" lon="5.88196">
        <ele>391</ele>
        <time>2009-04-19T16:01:50Z</time>
      </trkpt>
      <trkpt lat="46.94351" lon="5.88196">
        <ele>393</ele>
        <time>2009-04-19T16:01:53Z</time>
      </trkpt>
      <trkpt lat="46.94351" lon="5.88195">
        <ele>393</ele>
        <time>2009-04-19T16:01:54Z</time>
      </trkpt>
      <trkpt lat="46.94336" lon="5.88175">
        <ele>391</ele>
        <time>2009-04-19T16:02:08Z</time>
      </trkpt>
      <trkpt lat="46.94332" lon="5.88168">
        <ele>391</ele>
        <time>2009-04-19T16:02:12Z</time>
      </trkpt>
      <trkpt lat="46.94325" lon="5.88162">
        <ele>391</ele>
        <time>2009-04-19T16:02:18Z</time>
      </trkpt>
      <trkpt lat="46.94309" lon="5.88151">
        <ele>391</ele>
        <time>2009-04-19T16:02:29Z</time>
      </trkpt>
      <trkpt lat="46.94293" lon="5.88146">
        <ele>388</ele>
        <time>2009-04-19T16:02:39Z</time>
      </trkpt>
      <trkpt lat="46.9428" lon="5.88132">
        <ele>390</ele>
        <time>2009-04-19T16:02:51Z</time>
      </trkpt>
      <trkpt lat="46.94277" lon="5.88129">
        <ele>390</ele>
        <time>2009-04-19T16:02:54Z</time>
      </trkpt>
      <trkpt lat="46.94259" lon="5.88114">
        <ele>388</ele>
        <time>2009-04-19T16:03:08Z</time>
      </trkpt>
      <trkpt lat="46.94237" lon="5.88097">
        <ele>389</ele>
        <time>2009-04-19T16:03:24Z</time>
      </trkpt>
      <trkpt lat="46.94234" lon="5.88094">
        <ele>388</ele>
        <time>2009-04-19T16:03:27Z</time>
      </trkpt>
      <trkpt lat="46.94232" lon="5.88092">
        <ele>389</ele>
        <time>2009-04-19T16:03:29Z</time>
      </trkpt>
      <trkpt lat="46.9423" lon="5.88088">
        <ele>388</ele>
        <time>2009-04-19T16:03:32Z</time>
      </trkpt>
      <trkpt lat="46.94223" lon="5.88086">
        <ele>387</ele>
        <time>2009-04-19T16:03:37Z</time>
      </trkpt>
      <trkpt lat="46.94222" lon="5.88082">
        <ele>386</ele>
        <time>2009-04-19T16:03:50Z</time>
      </trkpt>
      <trkpt lat="46.94241" lon="5.88085">
        <ele>382</ele>
        <time>2009-04-19T16:04:03Z</time>
      </trkpt>
      <trkpt lat="46.94268" lon="5.88081">
        <ele>379</ele>
        <time>2009-04-19T16:04:25Z</time>
      </trkpt>
      <trkpt lat="46.94277" lon="5.88084">
        <ele>376</ele>
        <time>2009-04-19T16:04:31Z</time>
      </trkpt>
      <trkpt lat="46.94294" lon="5.88088">
        <ele>375</ele>
        <time>2009-04-19T16:04:43Z</time>
      </trkpt>
      <trkpt lat="46.94311" lon="5.88088">
        <ele>373</ele>
        <time>2009-04-19T16:04:55Z</time>
      </trkpt>
      <trkpt lat="46.94324" lon="5.88097">
        <ele>369</ele>
        <time>2009-04-19T16:05:07Z</time>
      </trkpt>
      <trkpt lat="46.94341" lon="5.88101">
        <ele>370</ele>
        <time>2009-04-19T16:05:20Z</time>
      </trkpt>
      <trkpt lat="46.94349" lon="5.881">
        <ele>368</ele>
        <time>2009-04-19T16:05:25Z</time>
      </trkpt>
      <trkpt lat="46.94368" lon="5.88107">
        <ele>368</ele>
        <time>2009-04-19T16:05:36Z</time>
      </trkpt>
      <trkpt lat="46.94383" lon="5.88115">
        <ele>366</ele>
        <time>2009-04-19T16:05:49Z</time>
      </trkpt>
      <trkpt lat="46.94389" lon="5.88118">
        <ele>365</ele>
        <time>2009-04-19T16:05:54Z</time>
      </trkpt>
      <trkpt lat="46.94396" lon="5.8812">
        <ele>364</ele>
        <time>2009-04-19T16:06:00Z</time>
      </trkpt>
      <trkpt lat="46.94403" lon="5.88116">
        <ele>363</ele>
        <time>2009-04-19T16:06:06Z</time>
      </trkpt>
      <trkpt lat="46.944" lon="5.88102">
        <ele>360</ele>
        <time>2009-04-19T16:06:16Z</time>
      </trkpt>
      <trkpt lat="46.94399" lon="5.8809">
        <ele>360</ele>
        <time>2009-04-19T16:06:21Z</time>
      </trkpt>
      <trkpt lat="46.94405" lon="5.88062">
        <ele>357</ele>
        <time>2009-04-19T16:06:36Z</time>
      </trkpt>
      <trkpt lat="46.94406" lon="5.88054">
        <ele>356</ele>
        <time>2009-04-19T16:06:44Z</time>
      </trkpt>
      <trkpt lat="46.94409" lon="5.88045">
        <ele>356</ele>
        <time>2009-04-19T16:06:49Z</time>
      </trkpt>
      <trkpt lat="46.94418" lon="5.88039">
        <ele>355</ele>
        <time>2009-04-19T16:06:57Z</time>
      </trkpt>
      <trkpt lat="46.94424" lon="5.88025">
        <ele>355</ele>
        <time>2009-04-19T16:07:13Z</time>
      </trkpt>
      <trkpt lat="46.94431" lon="5.88013">
        <ele>355</ele>
        <time>2009-04-19T16:07:37Z</time>
      </trkpt>
      <trkpt lat="46.9443" lon="5.88019">
        <ele>355</ele>
        <time>2009-04-19T16:08:08Z</time>
      </trkpt>
    </trkseg>
  </trk>
</gpx>